Time,TemperatureF,DewpointF,PressureIn,WindDirection,WindDirectionDegrees,WindSpeedMPH,WindSpeedGustMPH,Humidity,HourlyPrecipIn,Conditions,Clouds,dailyrainin,SolarRadiationWatts/m^2,SoftwareType,DateUTC
2013-03-22 00:00:00,23.4,18.4,30.05,ENE,63,3.0,4.0,81,0.00,,,0.00,0,Wunderground v.1.15,2013-03-22 05:00:00,
2013-03-22 00:01:00,23.4,18.4,30.04,ENE,61,2.0,4.0,81,0.00,,,0.00,0,Wunderground v.1.15,2013-03-22 05:01:00,
2013-03-22 00:05:00,23.4,18.4,30.05,ENE,63,3.0,4.0,81,0.00,,,0.00,0,Wunderground v.1.15,2013-03-22 05:05:00,
2013-03-22 00:06:00,23.4,18.4,30.05,ENE,73,4.0,4.0,81,0.00,,,0.00,0,Wunderground v.1.15,2013-03-22 05:06:00,
2013-03-22 00:07:00,23.4,18.4,30.05,ENE,69,3.0,4.0,81,0.00,,,0.00,0,Wunderground v.1.15,2013-03-22 05:07:00,
2013-03-22 00:08:00,23.4,18.4,30.05,ENE,73,2.0,4.0,81,0.00,,,0.00,0,Wunderground v.1.15,2013-03-22 05:08:00,
2013-03-22 00:12:00,23.4,18.4,30.05,NE,56,2.0,3.0,81,0.00,,,0.00,0,Wunderground v.1.15,2013-03-22 05:12:00,
2013-03-22 00:18:00,23.3,18.3,30.05,ENE,66,3.0,3.0,81,0.00,,,0.00,0,Wunderground v.1.15,2013-03-22 05:18:00,
2013-03-22 00:19:00,23.3,18.3,30.05,NE,52,3.0,3.0,81,0.00,,,0.00,0,Wunderground v.1.15,2013-03-22 05:19:00,
2013-03-22 00:20:00,23.3,18.3,30.05,East,91,2.0,3.0,81,0.00,,,0.00,0,Wunderground v.1.15,2013-03-22 05:20:00,
2013-03-22 00:23:00,23.3,18.3,30.05,East,90,1.0,3.0,81,0.00,,,0.00,0,Wunderground v.1.15,2013-03-22 05:23:00,
2013-03-22 00:25:00,23.3,18.3,30.05,ENE,59,3.0,3.0,81,0.00,,,0.00,0,Wunderground v.1.15,2013-03-22 05:25:00,
2013-03-22 00:26:00,23.3,18.3,30.05,NE,49,2.0,3.0,81,0.00,,,0.00,0,Wunderground v.1.15,2013-03-22 05:26:00,
2013-03-22 00:29:00,23.3,18.3,30.05,NE,53,1.0,3.0,81,0.00,,,0.00,0,Wunderground v.1.15,2013-03-22 05:29:00,
2013-03-22 00:31:00,23.2,18.2,30.05,NE,55,1.0,2.0,81,0.00,,,0.00,0,Wunderground v.1.15,2013-03-22 05:31:00,
2013-03-22 00:32:00,23.2,18.2,30.05,NE,55,2.0,2.0,81,0.00,,,0.00,0,Wunderground v.1.15,2013-03-22 05:32:00,
2013-03-22 00:36:00,23.1,18.1,30.05,ENE,69,3.0,3.0,81,0.00,,,0.00,0,Wunderground v.1.15,2013-03-22 05:36:00,
2013-03-22 00:37:00,23.1,18.1,30.05,ENE,69,2.0,3.0,81,0.00,,,0.00,0,Wunderground v.1.15,2013-03-22 05:37:00,
2013-03-22 00:38:00,23.2,18.2,30.05,ENE,69,3.0,3.0,81,0.00,,,0.00,0,Wunderground v.1.15,2013-03-22 05:38:00,
2013-03-22 00:39:00,23.2,18.2,30.05,ENE,67,3.0,3.0,81,0.00,,,0.00,0,Wunderground v.1.15,2013-03-22 05:39:00,
2013-03-22 00:43:00,23.2,18.2,30.05,NE,49,2.0,3.0,81,0.00,,,0.00,0,Wunderground v.1.15,2013-03-22 05:43:00,
2013-03-22 00:44:00,23.1,18.1,30.05,NE,49,2.0,3.0,81,0.00,,,0.00,0,Wunderground v.1.15,2013-03-22 05:44:00,
2013-03-22 00:48:00,23.1,18.1,30.05,ENE,58,1.0,3.0,81,0.00,,,0.00,0,Wunderground v.1.15,2013-03-22 05:48:00,
2013-03-22 00:49:00,23.0,18.0,30.05,ENE,58,1.0,3.0,81,0.00,,,0.00,0,Wunderground v.1.15,2013-03-22 05:49:00,
2013-03-22 00:50:00,22.9,17.9,30.05,ENE,58,1.0,2.0,81,0.00,,,0.00,0,Wunderground v.1.15,2013-03-22 05:50:00,
2013-03-22 00:54:00,22.9,18.2,30.05,ENE,67,3.0,3.0,82,0.00,,,0.00,0,Wunderground v.1.15,2013-03-22 05:54:00,
2013-03-22 00:55:00,23.0,18.3,30.05,ENE,67,1.0,3.0,82,0.00,,,0.00,0,Wunderground v.1.15,2013-03-22 05:55:00,
2013-03-22 00:56:00,22.9,18.2,30.05,ENE,67,2.0,3.0,82,0.00,,,0.00,0,Wunderground v.1.15,2013-03-22 05:56:00,
2013-03-22 01:00:00,22.9,18.2,30.05,ENE,59,0.0,2.0,82,0.00,,,0.00,0,Wunderground v.1.15,2013-03-22 06:00:00,
2013-03-22 01:01:00,22.9,18.2,30.05,ENE,59,1.0,2.0,82,0.00,,,0.00,0,Wunderground v.1.15,2013-03-22 06:01:00,
2013-03-22 01:06:00,22.8,18.1,30.05,ENE,57,3.0,3.0,82,0.00,,,0.00,0,Wunderground v.1.15,2013-03-22 06:06:00,
2013-03-22 01:07:00,22.8,18.1,30.05,ENE,57,2.0,3.0,82,0.00,,,0.00,0,Wunderground v.1.15,2013-03-22 06:07:00,
2013-03-22 01:08:00,22.8,18.1,30.05,ENE,57,1.0,3.0,82,0.00,,,0.00,0,Wunderground v.1.15,2013-03-22 06:08:00,
2013-03-22 01:13:00,22.8,18.4,30.05,ENE,59,0.0,3.0,83,0.00,,,0.00,0,Wunderground v.1.15,2013-03-22 06:13:00,
2013-03-22 01:14:00,22.7,18.0,30.05,ENE,59,1.0,3.0,82,0.00,,,0.00,0,Wunderground v.1.15,2013-03-22 06:14:00,
2013-03-22 01:15:00,22.7,18.3,30.05,NE,50,2.0,3.0,83,0.00,,,0.00,0,Wunderground v.1.15,2013-03-22 06:15:00,
2013-03-22 01:17:00,22.6,18.2,30.05,NE,50,1.0,3.0,83,0.00,,,0.00,0,Wunderground v.1.15,2013-03-22 06:17:00,
2013-03-22 01:20:00,22.6,18.2,30.05,NE,50,1.0,2.0,83,0.00,,,0.00,0,Wunderground v.1.15,2013-03-22 06:20:00,
2013-03-22 01:23:00,22.6,18.2,30.05,NE,51,3.0,3.0,83,0.00,,,0.00,0,Wunderground v.1.15,2013-03-22 06:23:00,
2013-03-22 01:26:00,22.6,18.2,30.05,NE,52,3.0,3.0,83,0.00,,,0.00,0,Wunderground v.1.15,2013-03-22 06:26:00,
2013-03-22 01:28:00,22.6,18.2,30.05,NE,49,4.0,4.0,83,0.00,,,0.00,0,Wunderground v.1.15,2013-03-22 06:28:00,
2013-03-22 01:29:00,22.6,18.2,30.05,NE,49,1.0,4.0,83,0.00,,,0.00,0,Wunderground v.1.15,2013-03-22 06:29:00,
2013-03-22 01:30:00,22.6,18.2,30.05,NE,49,1.0,2.0,83,0.00,,,0.00,0,Wunderground v.1.15,2013-03-22 06:30:00,
2013-03-22 01:33:00,22.6,18.2,30.05,NE,49,0.0,2.0,83,0.00,,,0.00,0,Wunderground v.1.15,2013-03-22 06:33:00,
2013-03-22 01:37:00,22.4,18.0,30.05,NE,49,0.0,2.0,83,0.00,,,0.00,0,Wunderground v.1.15,2013-03-22 06:37:00,
2013-03-22 01:40:00,22.4,18.0,30.05,NE,49,1.0,1.0,83,0.00,,,0.00,0,Wunderground v.1.15,2013-03-22 06:40:00,
2013-03-22 01:41:00,22.3,17.9,30.05,NE,49,0.0,1.0,83,0.00,,,0.00,0,Wunderground v.1.15,2013-03-22 06:41:00,
2013-03-22 01:43:00,22.4,18.3,30.05,NE,49,0.0,1.0,84,0.00,,,0.00,0,Wunderground v.1.15,2013-03-22 06:43:00,
2013-03-22 01:47:00,22.3,18.2,30.05,NE,49,0.0,2.0,84,0.00,,,0.00,0,Wunderground v.1.15,2013-03-22 06:47:00,
2013-03-22 01:48:00,22.4,18.3,30.05,NE,49,3.0,3.0,84,0.00,,,0.00,0,Wunderground v.1.15,2013-03-22 06:48:00,
2013-03-22 01:53:00,22.4,18.3,30.06,NE,49,0.0,3.0,84,0.00,,,0.00,0,Wunderground v.1.15,2013-03-22 06:53:00,
2013-03-22 01:54:00,22.4,18.3,30.05,NE,49,2.0,3.0,84,0.00,,,0.00,0,Wunderground v.1.15,2013-03-22 06:54:00,
2013-03-22 01:58:00,22.3,18.2,30.06,NE,49,1.0,3.0,84,0.00,,,0.00,0,Wunderground v.1.15,2013-03-22 06:58:00,
2013-03-22 01:59:00,22.3,18.2,30.06,NE,49,2.0,3.0,84,0.00,,,0.00,0,Wunderground v.1.15,2013-03-22 06:59:00,
2013-03-22 02:00:00,22.3,18.2,30.06,NE,49,1.0,1.0,84,0.00,,,0.00,0,Wunderground v.1.15,2013-03-22 07:00:00,
2013-03-22 02:01:00,22.3,18.2,30.06,NE,49,3.0,3.0,84,0.00,,,0.00,0,Wunderground v.1.15,2013-03-22 07:01:00,
2013-03-22 02:04:00,22.3,18.5,30.05,NE,49,2.0,3.0,85,0.00,,,0.00,0,Wunderground v.1.15,2013-03-22 07:04:00,
2013-03-22 02:07:00,22.3,18.5,30.05,NE,49,3.0,3.0,85,0.00,,,0.00,0,Wunderground v.1.15,2013-03-22 07:07:00,
2013-03-22 02:08:00,22.3,18.5,30.05,NE,49,2.0,3.0,85,0.00,,,0.00,0,Wunderground v.1.15,2013-03-22 07:08:00,
2013-03-22 02:09:00,22.3,18.5,30.05,NE,51,2.0,3.0,85,0.00,,,0.00,0,Wunderground v.1.15,2013-03-22 07:09:00,
2013-03-22 02:10:00,22.3,18.5,30.05,NE,51,2.0,3.0,85,0.00,,,0.00,0,Wunderground v.1.15,2013-03-22 07:10:00,
2013-03-22 02:12:00,22.3,18.5,30.05,ENE,70,3.0,3.0,85,0.00,,,0.00,0,Wunderground v.1.15,2013-03-22 07:12:00,
2013-03-22 02:14:00,22.3,18.5,30.05,ENE,63,1.0,4.0,85,0.00,,,0.00,0,Wunderground v.1.15,2013-03-22 07:14:00,
2013-03-22 02:15:00,22.4,18.6,30.05,ENE,63,2.0,4.0,85,0.00,,,0.00,0,Wunderground v.1.15,2013-03-22 07:15:00,
2013-03-22 02:18:00,22.3,18.5,30.05,ENE,59,4.0,4.0,85,0.00,,,0.00,0,Wunderground v.1.15,2013-03-22 07:18:00,
2013-03-22 02:20:00,22.3,18.5,30.05,ENE,59,1.0,2.0,85,0.00,,,0.00,0,Wunderground v.1.15,2013-03-22 07:20:00,
2013-03-22 02:23:00,22.3,18.7,30.05,ENE,67,2.0,3.0,86,0.00,,,0.00,0,Wunderground v.1.15,2013-03-22 07:23:00,
2013-03-22 02:25:00,22.3,18.5,30.06,ENE,65,2.0,3.0,85,0.00,,,0.00,0,Wunderground v.1.15,2013-03-22 07:25:00,
2013-03-22 02:27:00,22.3,18.7,30.06,ENE,60,2.0,4.0,86,0.00,,,0.00,0,Wunderground v.1.15,2013-03-22 07:27:00,
2013-03-22 02:29:00,22.3,18.7,30.05,ENE,76,2.0,4.0,86,0.00,,,0.00,0,Wunderground v.1.15,2013-03-22 07:29:00,
2013-03-22 02:30:00,22.3,18.7,30.06,ENE,76,1.0,2.0,86,0.00,,,0.00,0,Wunderground v.1.15,2013-03-22 07:30:00,
2013-03-22 02:32:00,22.4,18.8,30.05,ENE,62,3.0,4.0,86,0.00,,,0.00,0,Wunderground v.1.15,2013-03-22 07:32:00,
2013-03-22 02:33:00,22.3,18.7,30.05,ENE,60,3.0,4.0,86,0.00,,,0.00,0,Wunderground v.1.15,2013-03-22 07:33:00,
2013-03-22 02:34:00,22.3,18.7,30.06,ENE,63,1.0,4.0,86,0.00,,,0.00,0,Wunderground v.1.15,2013-03-22 07:34:00,
2013-03-22 02:36:00,22.4,18.8,30.06,ENE,63,2.0,5.0,86,0.00,,,0.00,0,Wunderground v.1.15,2013-03-22 07:36:00,
2013-03-22 02:38:00,22.4,18.8,30.05,ENE,60,4.0,5.0,86,0.00,,,0.00,0,Wunderground v.1.15,2013-03-22 07:38:00,
2013-03-22 02:39:00,22.4,18.8,30.05,NE,54,2.0,5.0,86,0.00,,,0.00,0,Wunderground v.1.15,2013-03-22 07:39:00,
2013-03-22 02:43:00,22.3,18.7,30.05,NE,54,2.0,2.0,86,0.00,,,0.00,0,Wunderground v.1.15,2013-03-22 07:43:00,
2013-03-22 02:44:00,22.4,18.8,30.05,NE,54,1.0,2.0,86,0.00,,,0.00,0,Wunderground v.1.15,2013-03-22 07:44:00,
2013-03-22 02:47:00,22.3,19.0,30.06,ENE,67,1.0,4.0,87,0.00,,,0.00,0,Wunderground v.1.15,2013-03-22 07:47:00,
2013-03-22 02:49:00,22.3,18.7,30.05,ENE,67,2.0,4.0,86,0.00,,,0.00,0,Wunderground v.1.15,2013-03-22 07:49:00,
2013-03-22 02:50:00,22.3,19.0,30.05,ENE,67,0.0,2.0,87,0.00,,,0.00,0,Wunderground v.1.15,2013-03-22 07:50:00,
2013-03-22 02:53:00,22.2,18.9,30.05,ENE,67,1.0,3.0,87,0.00,,,0.00,0,Wunderground v.1.15,2013-03-22 07:53:00,
2013-03-22 02:55:00,22.2,18.9,30.06,ENE,65,4.0,4.0,87,0.00,,,0.00,0,Wunderground v.1.15,2013-03-22 07:55:00,
2013-03-22 02:57:00,22.2,18.9,30.05,ENE,67,2.0,4.0,87,0.00,,,0.00,0,Wunderground v.1.15,2013-03-22 07:57:00,
2013-03-22 02:58:00,22.1,18.8,30.05,ENE,67,2.0,4.0,87,0.00,,,0.00,0,Wunderground v.1.15,2013-03-22 07:58:00,
2013-03-22 03:01:00,22.1,18.8,30.06,ENE,67,0.0,2.0,87,0.00,,,0.00,0,Wunderground v.1.15,2013-03-22 08:01:00,
2013-03-22 03:02:00,22.1,18.8,30.06,ENE,66,3.0,4.0,87,0.00,,,0.00,0,Wunderground v.1.15,2013-03-22 08:02:00,
2013-03-22 03:03:00,22.1,18.8,30.06,ENE,66,2.0,4.0,87,0.00,,,0.00,0,Wunderground v.1.15,2013-03-22 08:03:00,
2013-03-22 03:07:00,22.0,18.7,30.06,ENE,66,1.0,4.0,87,0.00,,,0.00,0,Wunderground v.1.15,2013-03-22 08:07:00,
2013-03-22 03:08:00,22.0,18.7,30.06,ENE,66,0.0,4.0,87,0.00,,,0.00,0,Wunderground v.1.15,2013-03-22 08:08:00,
2013-03-22 03:09:00,22.0,18.7,30.06,ENE,66,0.0,4.0,87,0.00,,,0.00,0,Wunderground v.1.15,2013-03-22 08:09:00,
2013-03-22 03:10:00,21.9,18.6,30.06,ENE,66,0.0,1.0,87,0.00,,,0.00,0,Wunderground v.1.15,2013-03-22 08:10:00,
2013-03-22 03:13:00,21.8,18.5,30.06,ENE,66,1.0,2.0,87,0.00,,,0.00,0,Wunderground v.1.15,2013-03-22 08:13:00,
2013-03-22 03:14:00,21.8,18.8,30.06,ENE,63,2.0,3.0,88,0.00,,,0.00,0,Wunderground v.1.15,2013-03-22 08:14:00,
2013-03-22 03:16:00,21.8,18.8,30.06,ENE,63,1.0,3.0,88,0.00,,,0.00,0,Wunderground v.1.15,2013-03-22 08:16:00,
2013-03-22 03:18:00,21.9,18.9,30.06,ENE,63,1.0,3.0,88,0.00,,,0.00,0,Wunderground v.1.15,2013-03-22 08:18:00,
2013-03-22 03:21:00,21.9,18.9,30.06,ENE,62,2.0,4.0,88,0.00,,,0.00,0,Wunderground v.1.15,2013-03-22 08:21:00,
2013-03-22 03:23:00,21.9,18.9,30.06,ENE,63,1.0,4.0,88,0.00,,,0.00,0,Wunderground v.1.15,2013-03-22 08:23:00,
2013-03-22 03:24:00,21.9,18.9,30.06,ENE,63,1.0,4.0,88,0.00,,,0.00,0,Wunderground v.1.15,2013-03-22 08:24:00,
2013-03-22 03:25:00,21.9,18.9,30.06,ENE,62,3.0,4.0,88,0.00,,,0.00,0,Wunderground v.1.15,2013-03-22 08:25:00,
2013-03-22 03:26:00,21.9,18.9,30.06,ENE,62,2.0,4.0,88,0.00,,,0.00,0,Wunderground v.1.15,2013-03-22 08:26:00,
2013-03-22 03:29:00,21.9,18.9,30.06,ENE,63,3.0,4.0,88,0.00,,,0.00,0,Wunderground v.1.15,2013-03-22 08:29:00,
2013-03-22 03:30:00,21.9,18.9,30.06,ENE,62,3.0,3.0,88,0.00,,,0.00,0,Wunderground v.1.15,2013-03-22 08:30:00,
2013-03-22 03:34:00,21.9,18.9,30.06,ENE,59,1.0,3.0,88,0.00,,,0.00,0,Wunderground v.1.15,2013-03-22 08:34:00,
2013-03-22 03:35:00,21.9,18.9,30.06,ENE,59,2.0,3.0,88,0.00,,,0.00,0,Wunderground v.1.15,2013-03-22 08:35:00,
2013-03-22 03:39:00,21.9,18.9,30.06,ENE,60,2.0,3.0,88,0.00,,,0.00,0,Wunderground v.1.15,2013-03-22 08:39:00,
2013-03-22 03:42:00,21.8,18.8,30.06,ENE,60,0.0,2.0,88,0.00,,,0.00,0,Wunderground v.1.15,2013-03-22 08:42:00,
2013-03-22 03:44:00,21.8,18.8,30.06,ENE,60,3.0,3.0,88,0.00,,,0.00,0,Wunderground v.1.15,2013-03-22 08:44:00,
2013-03-22 03:47:00,21.8,18.8,30.06,ENE,60,1.0,3.0,88,0.00,,,0.00,0,Wunderground v.1.15,2013-03-22 08:47:00,
2013-03-22 03:49:00,21.8,18.8,30.06,ENE,60,0.0,3.0,88,0.00,,,0.00,0,Wunderground v.1.15,2013-03-22 08:49:00,
2013-03-22 03:50:00,21.7,18.7,30.06,ENE,60,2.0,2.0,88,0.00,,,0.00,0,Wunderground v.1.15,2013-03-22 08:50:00,
2013-03-22 03:52:00,21.8,19.1,30.06,ENE,60,1.0,2.0,89,0.00,,,0.00,0,Wunderground v.1.15,2013-03-22 08:52:00,
2013-03-22 03:54:00,21.8,19.1,30.06,ENE,60,0.0,2.0,89,0.00,,,0.00,0,Wunderground v.1.15,2013-03-22 08:54:00,
2013-03-22 03:57:00,21.7,19.0,30.06,ENE,60,0.0,3.0,89,0.00,,,0.00,0,Wunderground v.1.15,2013-03-22 08:57:00,
2013-03-22 03:59:00,21.7,19.0,30.06,ENE,60,2.0,3.0,89,0.00,,,0.00,0,Wunderground v.1.15,2013-03-22 08:59:00,
2013-03-22 04:00:00,21.6,18.9,30.06,ENE,60,2.0,2.0,89,0.00,,,0.00,0,Wunderground v.1.15,2013-03-22 09:00:00,
2013-03-22 04:04:00,21.6,18.9,30.06,ENE,60,0.0,3.0,89,0.00,,,0.00,0,Wunderground v.1.15,2013-03-22 09:04:00,
2013-03-22 04:05:00,21.6,18.9,30.06,ENE,60,0.0,3.0,89,0.00,,,0.00,0,Wunderground v.1.15,2013-03-22 09:05:00,
2013-03-22 04:09:00,21.6,18.9,30.05,NE,56,1.0,3.0,89,0.00,,,0.00,0,Wunderground v.1.15,2013-03-22 09:09:00,
2013-03-22 04:10:00,21.6,18.9,30.05,NE,56,3.0,3.0,89,0.00,,,0.00,0,Wunderground v.1.15,2013-03-22 09:10:00,
2013-03-22 04:11:00,21.6,18.9,30.05,ENE,59,3.0,3.0,89,0.00,,,0.00,0,Wunderground v.1.15,2013-03-22 09:11:00,
2013-03-22 04:15:00,21.6,18.9,30.05,ENE,58,3.0,4.0,89,0.00,,,0.00,0,Wunderground v.1.15,2013-03-22 09:15:00,
2013-03-22 04:17:00,21.6,18.9,30.05,ENE,67,2.0,4.0,89,0.00,,,0.00,0,Wunderground v.1.15,2013-03-22 09:17:00,
2013-03-22 04:18:00,21.6,18.9,30.05,ENE,67,2.0,4.0,89,0.00,,,0.00,0,Wunderground v.1.15,2013-03-22 09:18:00,
2013-03-22 04:20:00,21.6,18.9,30.05,ENE,67,2.0,3.0,89,0.00,,,0.00,0,Wunderground v.1.15,2013-03-22 09:20:00,
2013-03-22 04:21:00,21.6,18.9,30.05,ENE,67,2.0,3.0,89,0.00,,,0.00,0,Wunderground v.1.15,2013-03-22 09:21:00,
2013-03-22 04:23:00,21.6,18.9,30.05,ENE,67,2.0,3.0,89,0.00,,,0.00,0,Wunderground v.1.15,2013-03-22 09:23:00,
2013-03-22 04:25:00,21.6,18.9,30.05,ENE,67,1.0,3.0,89,0.00,,,0.00,0,Wunderground v.1.15,2013-03-22 09:25:00,
2013-03-22 04:26:00,21.6,18.9,30.05,ENE,68,4.0,4.0,89,0.00,,,0.00,0,Wunderground v.1.15,2013-03-22 09:26:00,
2013-03-22 04:27:00,21.6,18.9,30.05,ENE,68,3.0,4.0,89,0.00,,,0.00,0,Wunderground v.1.15,2013-03-22 09:27:00,
2013-03-22 04:28:00,21.6,18.9,30.05,ENE,68,1.0,4.0,89,0.00,,,0.00,0,Wunderground v.1.15,2013-03-22 09:28:00,
2013-03-22 04:31:00,21.6,18.9,30.05,ENE,61,4.0,4.0,89,0.00,,,0.00,0,Wunderground v.1.15,2013-03-22 09:31:00,
2013-03-22 04:33:00,21.6,18.9,30.05,ENE,71,1.0,4.0,89,0.00,,,0.00,0,Wunderground v.1.15,2013-03-22 09:33:00,
2013-03-22 04:34:00,21.6,18.9,30.05,ENE,62,4.0,4.0,89,0.00,,,0.00,0,Wunderground v.1.15,2013-03-22 09:34:00,
2013-03-22 04:36:00,21.6,18.9,30.05,ENE,68,2.0,4.0,89,0.00,,,0.00,0,Wunderground v.1.15,2013-03-22 09:36:00,
2013-03-22 04:38:00,21.6,18.9,30.05,ENE,61,4.0,4.0,89,0.00,,,0.00,0,Wunderground v.1.15,2013-03-22 09:38:00,
2013-03-22 04:39:00,21.6,18.9,30.05,ENE,59,2.0,4.0,89,0.00,,,0.00,0,Wunderground v.1.15,2013-03-22 09:39:00,
2013-03-22 04:42:00,21.6,18.9,30.05,ENE,67,4.0,4.0,89,0.00,,,0.00,0,Wunderground v.1.15,2013-03-22 09:42:00,
2013-03-22 04:44:00,21.6,18.9,30.05,ENE,61,2.0,4.0,89,0.00,,,0.00,0,Wunderground v.1.15,2013-03-22 09:44:00,
2013-03-22 04:48:00,21.6,18.9,30.05,ENE,57,3.0,5.0,89,0.00,,,0.00,0,Wunderground v.1.15,2013-03-22 09:48:00,
2013-03-22 04:49:00,21.6,18.9,30.05,ENE,61,3.0,5.0,89,0.00,,,0.00,0,Wunderground v.1.15,2013-03-22 09:49:00,
2013-03-22 04:52:00,21.5,18.8,30.05,ENE,65,4.0,4.0,89,0.00,,,0.00,0,Wunderground v.1.15,2013-03-22 09:52:00,
2013-03-22 04:53:00,21.5,18.8,30.05,ENE,63,3.0,4.0,89,0.00,,,0.00,0,Wunderground v.1.15,2013-03-22 09:53:00,
2013-03-22 04:55:00,21.5,18.8,30.05,ENE,65,3.0,4.0,89,0.00,,,0.00,0,Wunderground v.1.15,2013-03-22 09:55:00,
2013-03-22 04:57:00,21.4,18.7,30.05,ENE,61,2.0,4.0,89,0.00,,,0.00,0,Wunderground v.1.15,2013-03-22 09:57:00,
2013-03-22 05:00:00,21.4,18.7,30.05,ENE,61,3.0,3.0,89,0.00,,,0.00,0,Wunderground v.1.15,2013-03-22 10:00:00,
2013-03-22 05:01:00,21.5,18.8,30.05,ENE,61,3.0,3.0,89,0.00,,,0.00,0,Wunderground v.1.15,2013-03-22 10:01:00,
2013-03-22 05:04:00,21.5,18.8,30.05,ENE,61,2.0,4.0,89,0.00,,,0.00,0,Wunderground v.1.15,2013-03-22 10:04:00,
2013-03-22 05:05:00,21.5,18.8,30.05,ENE,61,1.0,4.0,89,0.00,,,0.00,0,Wunderground v.1.15,2013-03-22 10:05:00,
2013-03-22 05:06:00,21.4,18.7,30.05,ENE,61,1.0,4.0,89,0.00,,,0.00,0,Wunderground v.1.15,2013-03-22 10:06:00,
2013-03-22 05:10:00,21.3,18.6,30.05,ENE,67,3.0,3.0,89,0.00,,,0.00,0,Wunderground v.1.15,2013-03-22 10:10:00,
2013-03-22 05:11:00,21.3,18.6,30.05,ENE,58,3.0,3.0,89,0.00,,,0.00,0,Wunderground v.1.15,2013-03-22 10:11:00,
2013-03-22 05:12:00,21.3,18.6,30.05,ENE,69,4.0,4.0,89,0.00,,,0.00,0,Wunderground v.1.15,2013-03-22 10:12:00,
2013-03-22 05:14:00,21.2,18.2,30.05,ENE,63,5.0,7.0,88,0.00,,,0.00,0,Wunderground v.1.15,2013-03-22 10:14:00,
2013-03-22 05:15:00,21.2,18.2,30.05,NE,49,2.0,7.0,88,0.00,,,0.00,0,Wunderground v.1.15,2013-03-22 10:15:00,
2013-03-22 05:16:00,21.2,18.2,30.05,ENE,66,3.0,7.0,88,0.00,,,0.00,0,Wunderground v.1.15,2013-03-22 10:16:00,
2013-03-22 05:17:00,21.2,18.2,30.05,ENE,63,2.0,7.0,88,0.00,,,0.00,0,Wunderground v.1.15,2013-03-22 10:17:00,
2013-03-22 05:19:00,21.3,18.3,30.05,NE,56,2.0,7.0,88,0.00,,,0.00,0,Wunderground v.1.15,2013-03-22 10:19:00,
2013-03-22 05:20:00,21.2,18.2,30.05,ENE,60,5.0,5.0,88,0.00,,,0.00,0,Wunderground v.1.15,2013-03-22 10:20:00,
2013-03-22 05:23:00,21.2,18.2,30.05,ENE,59,1.0,7.0,88,0.00,,,0.00,0,Wunderground v.1.15,2013-03-22 10:23:00,
2013-03-22 05:26:00,21.2,18.2,30.04,NE,55,4.0,7.0,88,0.00,,,0.00,0,Wunderground v.1.15,2013-03-22 10:26:00,
2013-03-22 05:28:00,21.2,18.2,30.04,ENE,63,3.0,7.0,88,0.00,,,0.00,0,Wunderground v.1.15,2013-03-22 10:28:00,
2013-03-22 05:29:00,21.1,18.1,30.04,ENE,61,3.0,7.0,88,0.00,,,0.00,0,Wunderground v.1.15,2013-03-22 10:29:00,
2013-03-22 05:31:00,21.1,18.1,30.04,NE,51,2.0,5.0,88,0.00,,,0.00,0,Wunderground v.1.15,2013-03-22 10:31:00,
2013-03-22 05:33:00,21.1,18.1,30.04,ENE,77,4.0,5.0,88,0.00,,,0.00,0,Wunderground v.1.15,2013-03-22 10:33:00,
2013-03-22 05:35:00,21.0,18.0,30.05,ENE,64,1.0,6.0,88,0.00,,,0.00,0,Wunderground v.1.15,2013-03-22 10:35:00,
2013-03-22 05:36:00,21.1,18.1,30.04,ENE,61,3.0,6.0,88,0.00,,,0.00,0,Wunderground v.1.15,2013-03-22 10:36:00,
2013-03-22 05:39:00,20.9,17.9,30.05,East,80,2.0,6.0,88,0.00,,,0.00,0,Wunderground v.1.15,2013-03-22 10:39:00,
2013-03-22 05:41:00,20.9,17.9,30.04,ENE,71,3.0,3.0,88,0.00,,,0.00,0,Wunderground v.1.15,2013-03-22 10:41:00,
2013-03-22 05:42:00,20.9,17.9,30.04,ENE,61,7.0,7.0,88,0.00,,,0.00,0,Wunderground v.1.15,2013-03-22 10:42:00,
2013-03-22 05:45:00,20.9,17.9,30.04,ENE,63,4.0,7.0,88,0.00,,,0.00,0,Wunderground v.1.15,2013-03-22 10:45:00,
2013-03-22 05:47:00,20.9,17.9,30.04,ENE,68,2.0,7.0,88,0.00,,,0.00,0,Wunderground v.1.15,2013-03-22 10:47:00,
2013-03-22 05:48:00,20.9,17.9,30.04,ENE,69,3.0,7.0,88,0.00,,,0.00,0,Wunderground v.1.15,2013-03-22 10:48:00,
2013-03-22 05:51:00,20.8,17.8,30.05,ENE,67,3.0,4.0,88,0.00,,,0.00,0,Wunderground v.1.15,2013-03-22 10:51:00,
2013-03-22 05:53:00,20.8,17.8,30.04,East,86,3.0,5.0,88,0.00,,,0.00,0,Wunderground v.1.15,2013-03-22 10:53:00,
2013-03-22 05:54:00,20.7,17.7,30.04,ENE,75,2.0,5.0,88,0.00,,,0.00,0,Wunderground v.1.15,2013-03-22 10:54:00,
2013-03-22 05:58:00,20.6,17.6,30.04,ENE,72,5.0,5.0,88,0.00,,,0.00,0,Wunderground v.1.15,2013-03-22 10:58:00,
2013-03-22 06:02:00,20.6,17.6,30.04,ENE,71,3.0,5.0,88,0.00,,,0.00,0,Wunderground v.1.15,2013-03-22 11:02:00,
2013-03-22 06:03:00,20.6,17.6,30.05,ENE,73,3.0,5.0,88,0.00,,,0.00,0,Wunderground v.1.15,2013-03-22 11:03:00,
2013-03-22 06:04:00,20.6,17.6,30.05,ENE,64,3.0,6.0,88,0.00,,,0.00,0,Wunderground v.1.15,2013-03-22 11:04:00,
2013-03-22 06:07:00,20.7,17.4,30.05,ENE,71,2.0,6.0,87,0.00,,,0.00,0,Wunderground v.1.15,2013-03-22 11:07:00,
2013-03-22 06:08:00,20.6,17.3,30.05,ENE,59,3.0,6.0,87,0.00,,,0.00,0,Wunderground v.1.15,2013-03-22 11:08:00,
2013-03-22 06:09:00,20.6,17.3,30.04,ENE,59,2.0,6.0,87,0.00,,,0.00,0,Wunderground v.1.15,2013-03-22 11:09:00,
2013-03-22 06:12:00,20.5,17.2,30.05,ENE,69,4.0,5.0,87,0.00,,,0.00,0,Wunderground v.1.15,2013-03-22 11:12:00,
2013-03-22 06:15:00,20.4,17.1,30.04,East,80,5.0,5.0,87,0.00,,,0.00,0,Wunderground v.1.15,2013-03-22 11:15:00,
2013-03-22 06:16:00,20.4,17.1,30.04,NE,42,5.0,8.0,87,0.00,,,0.00,0,Wunderground v.1.15,2013-03-22 11:16:00,
2013-03-22 06:17:00,20.4,17.1,30.05,NE,54,3.0,8.0,87,0.00,,,0.00,0,Wunderground v.1.15,2013-03-22 11:17:00,
2013-03-22 06:18:00,20.4,17.1,30.04,ENE,77,3.0,8.0,87,0.00,,,0.00,0,Wunderground v.1.15,2013-03-22 11:18:00,
2013-03-22 06:22:00,20.4,17.1,30.04,NE,54,5.0,5.0,87,0.00,,,0.00,0,Wunderground v.1.15,2013-03-22 11:22:00,
2013-03-22 06:23:00,20.4,17.1,30.04,ENE,58,5.0,8.0,87,0.00,,,0.00,0,Wunderground v.1.15,2013-03-22 11:23:00,
2013-03-22 06:24:00,20.4,17.1,30.04,ENE,58,4.0,8.0,87,0.00,,,0.00,0,Wunderground v.1.15,2013-03-22 11:24:00,
2013-03-22 06:28:00,20.3,16.8,30.05,NE,53,5.0,8.0,86,0.00,,,0.00,0,Wunderground v.1.15,2013-03-22 11:28:00,
2013-03-22 06:29:00,20.2,16.7,30.04,ENE,70,7.0,8.0,86,0.00,,,0.00,0,Wunderground v.1.15,2013-03-22 11:29:00,
2013-03-22 06:30:00,20.2,16.7,30.04,NE,49,4.0,7.0,86,0.00,,,0.00,0,Wunderground v.1.15,2013-03-22 11:30:00,
2013-03-22 06:34:00,20.2,16.7,30.05,ESE,102,5.0,7.0,86,0.00,,,0.00,0,Wunderground v.1.15,2013-03-22 11:34:00,
2013-03-22 06:35:00,20.2,16.7,30.05,ENE,74,5.0,7.0,86,0.00,,,0.00,0,Wunderground v.1.15,2013-03-22 11:35:00,
2013-03-22 06:36:00,20.1,16.6,30.05,ENE,66,4.0,7.0,86,0.00,,,0.00,0,Wunderground v.1.15,2013-03-22 11:36:00,
2013-03-22 06:40:00,20.1,16.6,30.05,NE,49,5.0,7.0,86,0.00,,,0.00,0,Wunderground v.1.15,2013-03-22 11:40:00,
2013-03-22 06:41:00,20.1,16.6,30.05,ENE,74,4.0,5.0,86,0.00,,,0.00,0,Wunderground v.1.15,2013-03-22 11:41:00,
2013-03-22 06:42:00,20.0,16.5,30.05,ENE,74,1.0,5.0,86,0.00,,,0.00,0,Wunderground v.1.15,2013-03-22 11:42:00,
2013-03-22 06:45:00,19.9,16.4,30.05,NE,55,4.0,7.0,86,0.00,,,0.00,0,Wunderground v.1.15,2013-03-22 11:45:00,
2013-03-22 06:48:00,19.9,16.4,30.04,ENE,59,5.0,7.0,86,0.00,,,0.00,0,Wunderground v.1.15,2013-03-22 11:48:00,
2013-03-22 06:50:00,19.8,16.3,30.05,ENE,59,3.0,3.0,86,0.00,,,0.00,0,Wunderground v.1.15,2013-03-22 11:50:00,
2013-03-22 06:54:00,19.8,16.3,30.05,ENE,76,4.0,5.0,86,0.00,,,0.00,0,Wunderground v.1.15,2013-03-22 11:54:00,
2013-03-22 06:55:00,19.8,16.3,30.05,ENE,65,3.0,5.0,86,0.00,,,0.00,0,Wunderground v.1.15,2013-03-22 11:55:00,
2013-03-22 06:56:00,19.8,16.3,30.05,NE,47,3.0,5.0,86,0.00,,,0.00,0,Wunderground v.1.15,2013-03-22 11:56:00,
2013-03-22 06:58:00,19.8,16.3,30.05,ENE,70,3.0,5.0,86,0.00,,,0.00,0,Wunderground v.1.15,2013-03-22 11:58:00,
2013-03-22 06:59:00,19.8,16.3,30.05,ENE,65,3.0,5.0,86,0.00,,,0.00,0,Wunderground v.1.15,2013-03-22 11:59:00,
2013-03-22 07:01:00,19.8,16.3,30.05,ENE,66,3.0,6.0,86,0.00,,,0.00,0,Wunderground v.1.15,2013-03-22 12:01:00,
2013-03-22 07:04:00,19.8,16.3,30.05,ENE,67,2.0,6.0,86,0.00,,,0.00,0,Wunderground v.1.15,2013-03-22 12:04:00,
2013-03-22 07:05:00,19.7,16.2,30.05,ENE,71,2.0,6.0,86,0.00,,,0.00,0,Wunderground v.1.15,2013-03-22 12:05:00,
2013-03-22 07:06:00,19.7,16.2,30.05,ENE,69,1.0,6.0,86,0.00,,,0.00,0,Wunderground v.1.15,2013-03-22 12:06:00,
2013-03-22 07:09:00,19.6,16.1,30.05,NE,56,3.0,6.0,86,0.00,,,0.00,0,Wunderground v.1.15,2013-03-22 12:09:00,
2013-03-22 07:10:00,19.6,16.1,30.04,ENE,59,4.0,5.0,86,0.00,,,0.00,0,Wunderground v.1.15,2013-03-22 12:10:00,
2013-03-22 07:11:00,19.6,16.1,30.04,East,84,5.0,5.0,86,0.00,,,0.00,0,Wunderground v.1.15,2013-03-22 12:11:00,
2013-03-22 07:12:00,19.6,16.1,30.04,East,82,3.0,5.0,86,0.00,,,0.00,0,Wunderground v.1.15,2013-03-22 12:12:00,
2013-03-22 07:15:00,19.6,16.1,30.04,ENE,68,1.0,5.0,86,0.00,,,0.00,5,Wunderground v.1.15,2013-03-22 12:15:00,
2013-03-22 07:16:00,19.6,16.1,30.04,East,80,2.0,5.0,86,0.00,,,0.00,5,Wunderground v.1.15,2013-03-22 12:16:00,
2013-03-22 07:17:00,19.5,16.0,30.05,East,84,2.0,6.0,86,0.00,,,0.00,5,Wunderground v.1.15,2013-03-22 12:17:00,
2013-03-22 07:18:00,19.5,16.0,30.05,East,84,3.0,6.0,86,0.00,,,0.00,5,Wunderground v.1.15,2013-03-22 12:18:00,
2013-03-22 07:22:00,19.5,16.0,30.04,ENE,67,1.0,3.0,86,0.00,,,0.00,9,Wunderground v.1.15,2013-03-22 12:22:00,
2013-03-22 07:23:00,19.5,16.0,30.04,ENE,67,3.0,3.0,86,0.00,,,0.00,9,Wunderground v.1.15,2013-03-22 12:23:00,
2013-03-22 07:24:00,19.5,16.0,30.04,NE,55,2.0,3.0,86,0.00,,,0.00,9,Wunderground v.1.15,2013-03-22 12:24:00,
2013-03-22 07:28:00,19.4,15.9,30.05,East,90,3.0,7.0,86,0.00,,,0.00,12,Wunderground v.1.15,2013-03-22 12:28:00,
2013-03-22 07:30:00,19.4,15.9,30.05,East,80,6.0,7.0,86,0.00,,,0.00,14,Wunderground v.1.15,2013-03-22 12:30:00,
2013-03-22 07:31:00,19.4,15.9,30.05,East,81,2.0,5.0,86,0.00,,,0.00,14,Wunderground v.1.15,2013-03-22 12:31:00,
2013-03-22 07:33:00,19.5,16.0,30.05,ENE,73,3.0,5.0,86,0.00,,,0.00,16,Wunderground v.1.15,2013-03-22 12:33:00,
2013-03-22 07:34:00,19.4,15.6,30.05,ENE,69,3.0,5.0,85,0.00,,,0.00,18,Wunderground v.1.15,2013-03-22 12:34:00,
2013-03-22 07:35:00,19.4,15.6,30.05,East,85,2.0,5.0,85,0.00,,,0.00,18,Wunderground v.1.15,2013-03-22 12:35:00,
2013-03-22 07:38:00,19.5,15.7,30.05,ENE,66,4.0,5.0,85,0.00,,,0.00,21,Wunderground v.1.15,2013-03-22 12:38:00,
2013-03-22 07:39:00,19.5,15.7,30.05,ENE,78,4.0,5.0,85,0.00,,,0.00,21,Wunderground v.1.15,2013-03-22 12:39:00,
2013-03-22 07:40:00,19.5,15.7,30.05,ENE,77,3.0,3.0,85,0.00,,,0.00,23,Wunderground v.1.15,2013-03-22 12:40:00,
2013-03-22 07:44:00,19.5,15.7,30.05,ENE,70,4.0,4.0,85,0.00,,,0.00,30,Wunderground v.1.15,2013-03-22 12:44:00,
2013-03-22 07:46:00,19.5,15.7,30.05,East,84,3.0,6.0,85,0.00,,,0.00,37,Wunderground v.1.15,2013-03-22 12:46:00,
2013-03-22 07:48:00,19.6,15.8,30.05,East,94,6.0,6.0,85,0.00,,,0.00,42,Wunderground v.1.15,2013-03-22 12:48:00,
2013-03-22 07:49:00,19.7,15.9,30.05,ENE,71,1.0,6.0,85,0.00,,,0.00,47,Wunderground v.1.15,2013-03-22 12:49:00,
2013-03-22 07:50:00,19.7,15.9,30.05,ENE,70,2.0,6.0,85,0.00,,,0.00,47,Wunderground v.1.15,2013-03-22 12:50:00,
2013-03-22 07:53:00,19.8,16.0,30.05,East,90,3.0,5.0,85,0.00,,,0.00,56,Wunderground v.1.15,2013-03-22 12:53:00,
2013-03-22 07:54:00,19.9,16.1,30.06,ENE,78,3.0,5.0,85,0.00,,,0.00,60,Wunderground v.1.15,2013-03-22 12:54:00,
2013-03-22 07:55:00,20.0,16.2,30.06,ENE,69,2.0,5.0,85,0.00,,,0.00,62,Wunderground v.1.15,2013-03-22 12:55:00,
2013-03-22 07:57:00,20.1,16.0,30.06,East,88,3.0,5.0,84,0.00,,,0.00,69,Wunderground v.1.15,2013-03-22 12:57:00,
2013-03-22 07:58:00,20.1,16.0,30.06,East,88,3.0,5.0,84,0.00,,,0.00,72,Wunderground v.1.15,2013-03-22 12:58:00,
2013-03-22 08:00:00,20.2,16.1,30.06,East,92,6.0,6.0,84,0.00,,,0.00,77,Wunderground v.1.15,2013-03-22 13:00:00,
2013-03-22 08:02:00,20.3,16.2,30.06,ENE,72,3.0,8.0,84,0.00,,,0.00,81,Wunderground v.1.15,2013-03-22 13:02:00,
2013-03-22 08:03:00,20.3,16.2,30.06,East,95,6.0,8.0,84,0.00,,,0.00,83,Wunderground v.1.15,2013-03-22 13:03:00,
2013-03-22 08:05:00,20.5,16.2,30.05,ENE,72,4.0,8.0,83,0.00,,,0.00,84,Wunderground v.1.15,2013-03-22 13:05:00,
2013-03-22 08:07:00,20.6,16.3,30.05,ENE,61,4.0,8.0,83,0.00,,,0.00,84,Wunderground v.1.15,2013-03-22 13:07:00,
2013-03-22 08:08:00,20.6,16.3,30.05,ENE,69,3.0,8.0,83,0.00,,,0.00,93,Wunderground v.1.15,2013-03-22 13:08:00,
2013-03-22 08:11:00,20.7,16.4,30.06,East,100,5.0,5.0,83,0.00,,,0.00,107,Wunderground v.1.15,2013-03-22 13:11:00,
2013-03-22 08:13:00,20.8,16.5,30.06,ENE,71,4.0,6.0,83,0.00,,,0.00,120,Wunderground v.1.15,2013-03-22 13:13:00,
2013-03-22 08:15:00,20.9,16.3,30.06,ENE,69,5.0,6.0,82,0.00,,,0.00,127,Wunderground v.1.15,2013-03-22 13:15:00,
2013-03-22 08:17:00,21.0,16.4,30.06,East,101,5.0,6.0,82,0.00,,,0.00,139,Wunderground v.1.15,2013-03-22 13:17:00,
2013-03-22 08:18:00,21.1,16.5,30.06,East,81,5.0,7.0,82,0.00,,,0.00,142,Wunderground v.1.15,2013-03-22 13:18:00,
2013-03-22 08:20:00,21.2,16.3,30.06,East,82,3.0,5.0,81,0.00,,,0.00,148,Wunderground v.1.15,2013-03-22 13:20:00,
2013-03-22 08:21:00,21.2,16.3,30.06,ENE,57,5.0,5.0,81,0.00,,,0.00,151,Wunderground v.1.15,2013-03-22 13:21:00,
2013-03-22 08:22:00,21.3,16.4,30.06,ENE,61,4.0,5.0,81,0.00,,,0.00,158,Wunderground v.1.15,2013-03-22 13:22:00,
2013-03-22 08:25:00,21.6,16.7,30.06,ENE,63,3.0,5.0,81,0.00,,,0.00,165,Wunderground v.1.15,2013-03-22 13:25:00,
2013-03-22 08:26:00,21.7,16.8,30.06,East,94,3.0,5.0,81,0.00,,,0.00,172,Wunderground v.1.15,2013-03-22 13:26:00,
2013-03-22 08:30:00,21.8,16.6,30.06,ENE,70,5.0,5.0,80,0.00,,,0.00,192,Wunderground v.1.15,2013-03-22 13:30:00,
2013-03-22 08:32:00,21.9,16.7,30.06,ENE,61,7.0,7.0,80,0.00,,,0.00,199,Wunderground v.1.15,2013-03-22 13:32:00,
2013-03-22 08:33:00,21.9,16.7,30.06,ENE,67,4.0,7.0,80,0.00,,,0.00,202,Wunderground v.1.15,2013-03-22 13:33:00,
2013-03-22 08:36:00,22.2,17.0,30.06,East,82,6.0,7.0,80,0.00,,,0.00,213,Wunderground v.1.15,2013-03-22 13:36:00,
2013-03-22 08:38:00,22.2,16.7,30.06,ENE,74,3.0,8.0,79,0.00,,,0.00,223,Wunderground v.1.15,2013-03-22 13:38:00,
2013-03-22 08:42:00,22.5,17.0,30.06,East,88,3.0,7.0,79,0.00,,,0.00,237,Wunderground v.1.15,2013-03-22 13:42:00,
2013-03-22 08:43:00,22.6,17.4,30.06,ENE,69,3.0,7.0,80,0.00,,,0.00,243,Wunderground v.1.15,2013-03-22 13:43:00,
2013-03-22 08:44:00,22.6,17.1,30.06,ENE,74,4.0,7.0,79,0.00,,,0.00,246,Wunderground v.1.15,2013-03-22 13:44:00,
2013-03-22 08:47:00,22.8,17.0,30.06,East,79,5.0,7.0,78,0.00,,,0.00,253,Wunderground v.1.15,2013-03-22 13:47:00,
2013-03-22 08:49:00,23.0,17.5,30.06,East,96,6.0,8.0,79,0.00,,,0.00,258,Wunderground v.1.15,2013-03-22 13:49:00,
2013-03-22 08:51:00,23.1,17.6,30.06,ESE,104,5.0,7.0,79,0.00,,,0.00,264,Wunderground v.1.15,2013-03-22 13:51:00,
2013-03-22 08:52:00,23.1,17.3,30.06,East,99,5.0,8.0,78,0.00,,,0.00,264,Wunderground v.1.15,2013-03-22 13:52:00,
2013-03-22 08:55:00,23.2,17.4,30.06,ESE,109,3.0,8.0,78,0.00,,,0.00,265,Wunderground v.1.15,2013-03-22 13:55:00,
2013-03-22 08:58:00,23.5,17.6,30.06,ENE,78,5.0,8.0,78,0.00,,,0.00,271,Wunderground v.1.15,2013-03-22 13:58:00,
2013-03-22 09:01:00,23.4,17.3,30.06,East,80,5.0,6.0,77,0.00,,,0.00,281,Wunderground v.1.15,2013-03-22 14:01:00,
2013-03-22 09:02:00,23.5,17.3,30.06,East,84,10.0,10.0,77,0.00,,,0.00,283,Wunderground v.1.15,2013-03-22 14:02:00,
2013-03-22 09:04:00,23.5,17.3,30.06,ESE,103,9.0,10.0,77,0.00,,,0.00,290,Wunderground v.1.15,2013-03-22 14:04:00,
2013-03-22 09:06:00,23.6,17.4,30.06,East,100,8.0,10.0,77,0.00,,,0.00,297,Wunderground v.1.15,2013-03-22 14:06:00,
2013-03-22 09:08:00,23.8,17.9,30.06,ESE,106,5.0,10.0,78,0.00,,,0.00,306,Wunderground v.1.15,2013-03-22 14:08:00,
2013-03-22 09:09:00,23.8,17.9,30.06,ESE,113,3.0,10.0,78,0.00,,,0.00,306,Wunderground v.1.15,2013-03-22 14:09:00,
2013-03-22 09:10:00,24.2,18.6,30.06,East,91,8.0,8.0,79,0.00,,,0.00,311,Wunderground v.1.15,2013-03-22 14:10:00,
2013-03-22 09:12:00,24.3,18.1,30.06,East,85,7.0,8.0,77,0.00,,,0.00,318,Wunderground v.1.15,2013-03-22 14:12:00,
2013-03-22 09:14:00,24.3,18.1,30.06,ESE,111,5.0,8.0,77,0.00,,,0.00,323,Wunderground v.1.15,2013-03-22 14:14:00,
2013-03-22 09:15:00,24.4,18.2,30.06,ESE,117,9.0,10.0,77,0.00,,,0.00,329,Wunderground v.1.15,2013-03-22 14:15:00,
2013-03-22 09:17:00,24.5,18.3,30.06,East,81,7.0,10.0,77,0.00,,,0.00,330,Wunderground v.1.15,2013-03-22 14:17:00,
2013-03-22 09:18:00,24.6,18.4,30.06,East,86,9.0,10.0,77,0.00,,,0.00,338,Wunderground v.1.15,2013-03-22 14:18:00,
2013-03-22 09:19:00,24.7,18.5,30.06,ESE,107,4.0,10.0,77,0.00,,,0.00,339,Wunderground v.1.15,2013-03-22 14:19:00,
2013-03-22 09:23:00,24.9,18.4,30.06,East,84,5.0,7.0,76,0.00,,,0.00,352,Wunderground v.1.15,2013-03-22 14:23:00,
2013-03-22 09:24:00,24.9,18.4,30.05,East,83,6.0,7.0,76,0.00,,,0.00,357,Wunderground v.1.15,2013-03-22 14:24:00,
2013-03-22 09:25:00,25.0,18.5,30.05,ESE,106,4.0,7.0,76,0.00,,,0.00,359,Wunderground v.1.15,2013-03-22 14:25:00,
2013-03-22 09:28:00,25.4,19.2,30.05,ENE,74,7.0,9.0,77,0.00,,,0.00,371,Wunderground v.1.15,2013-03-22 14:28:00,
2013-03-22 09:29:00,25.4,18.9,30.05,ENE,75,4.0,9.0,76,0.00,,,0.00,374,Wunderground v.1.15,2013-03-22 14:29:00,
2013-03-22 09:30:00,25.4,18.9,30.05,East,85,6.0,6.0,76,0.00,,,0.00,376,Wunderground v.1.15,2013-03-22 14:30:00,
2013-03-22 09:33:00,25.3,18.5,30.05,ESE,115,5.0,9.0,75,0.00,,,0.00,388,Wunderground v.1.15,2013-03-22 14:33:00,
2013-03-22 09:34:00,25.4,19.2,30.05,ENE,64,4.0,9.0,77,0.00,,,0.00,388,Wunderground v.1.15,2013-03-22 14:34:00,
2013-03-22 09:35:00,25.6,19.4,30.05,East,98,7.0,9.0,77,0.00,,,0.00,394,Wunderground v.1.15,2013-03-22 14:35:00,
2013-03-22 09:39:00,25.8,19.3,30.05,East,91,6.0,9.0,76,0.00,,,0.00,404,Wunderground v.1.15,2013-03-22 14:39:00,
2013-03-22 09:40:00,26.0,19.5,30.05,East,91,7.0,12.0,76,0.00,,,0.00,410,Wunderground v.1.15,2013-03-22 14:40:00,
2013-03-22 09:41:00,26.0,19.2,30.05,ESE,112,8.0,12.0,75,0.00,,,0.00,413,Wunderground v.1.15,2013-03-22 14:41:00,
2013-03-22 09:42:00,25.9,19.1,30.04,ENE,78,5.0,12.0,75,0.00,,,0.00,415,Wunderground v.1.15,2013-03-22 14:42:00,
2013-03-22 09:47:00,26.3,19.5,30.04,ENE,75,7.0,12.0,75,0.00,,,0.00,429,Wunderground v.1.15,2013-03-22 14:47:00,
2013-03-22 09:48:00,26.4,19.9,30.04,East,92,6.0,12.0,76,0.00,,,0.00,436,Wunderground v.1.15,2013-03-22 14:48:00,
2013-03-22 09:52:00,26.5,19.6,30.04,East,101,7.0,7.0,75,0.00,,,0.00,445,Wunderground v.1.15,2013-03-22 14:52:00,
2013-03-22 09:53:00,26.6,19.7,30.04,ESE,102,10.0,10.0,75,0.00,,,0.00,452,Wunderground v.1.15,2013-03-22 14:53:00,
2013-03-22 09:57:00,27.0,20.1,30.04,ESE,116,4.0,10.0,75,0.00,,,0.00,461,Wunderground v.1.15,2013-03-22 14:57:00,
2013-03-22 09:58:00,27.1,20.2,30.04,SE,128,8.0,10.0,75,0.00,,,0.00,464,Wunderground v.1.15,2013-03-22 14:58:00,
2013-03-22 09:59:00,27.3,20.7,30.04,SE,137,7.0,11.0,76,0.00,,,0.00,468,Wunderground v.1.15,2013-03-22 14:59:00,
2013-03-22 10:03:00,27.7,20.8,30.04,ENE,76,5.0,7.0,75,0.00,,,0.00,480,Wunderground v.1.15,2013-03-22 15:03:00,
2013-03-22 10:05:00,27.9,20.7,30.04,ESE,116,2.0,7.0,74,0.00,,,0.00,482,Wunderground v.1.15,2013-03-22 15:05:00,
2013-03-22 10:08:00,28.4,20.8,30.04,NE,54,7.0,8.0,73,0.00,,,0.00,475,Wunderground v.1.15,2013-03-22 15:08:00,
2013-03-22 10:11:00,28.1,19.9,30.04,East,97,7.0,7.0,71,0.00,,,0.00,506,Wunderground v.1.15,2013-03-22 15:11:00,
2013-03-22 10:12:00,27.9,19.7,30.04,ESE,117,5.0,10.0,71,0.00,,,0.00,508,Wunderground v.1.15,2013-03-22 15:12:00,
2013-03-22 10:13:00,28.1,20.6,30.03,ESE,103,7.0,10.0,73,0.00,,,0.00,510,Wunderground v.1.15,2013-03-22 15:13:00,
2013-03-22 10:16:00,28.0,20.5,30.03,East,91,6.0,10.0,73,0.00,,,0.00,520,Wunderground v.1.15,2013-03-22 15:16:00,
2013-03-22 10:19:00,28.0,20.5,30.04,ESE,123,9.0,11.0,73,0.00,,,0.00,529,Wunderground v.1.15,2013-03-22 15:19:00,
2013-03-22 10:20:00,28.0,20.1,30.04,ESE,111,5.0,11.0,72,0.00,,,0.00,534,Wunderground v.1.15,2013-03-22 15:20:00,
2013-03-22 10:23:00,28.1,20.6,30.04,East,81,11.0,11.0,73,0.00,,,0.00,548,Wunderground v.1.15,2013-03-22 15:23:00,
2013-03-22 10:24:00,28.3,20.4,30.04,ESE,110,7.0,11.0,72,0.00,,,0.00,554,Wunderground v.1.15,2013-03-22 15:24:00,
2013-03-22 10:25:00,28.2,20.0,30.04,East,95,6.0,11.0,71,0.00,,,0.00,561,Wunderground v.1.15,2013-03-22 15:25:00,
2013-03-22 10:26:00,28.3,20.1,30.04,ESE,121,9.0,11.0,71,0.00,,,0.00,568,Wunderground v.1.15,2013-03-22 15:26:00,
2013-03-22 10:28:00,28.4,20.5,30.04,East,95,5.0,11.0,72,0.00,,,0.00,501,Wunderground v.1.15,2013-03-22 15:28:00,
2013-03-22 10:31:00,28.6,20.7,30.04,ESE,108,9.0,9.0,72,0.00,,,0.00,626,Wunderground v.1.15,2013-03-22 15:31:00,
2013-03-22 10:32:00,28.7,20.8,30.04,ESE,123,12.0,12.0,72,0.00,,,0.00,626,Wunderground v.1.15,2013-03-22 15:32:00,
2013-03-22 10:33:00,28.7,20.8,30.04,ESE,115,7.0,12.0,72,0.00,,,0.00,394,Wunderground v.1.15,2013-03-22 15:33:00,
2013-03-22 10:37:00,28.7,20.8,30.03,ESE,119,7.0,12.0,72,0.00,,,0.00,352,Wunderground v.1.15,2013-03-22 15:37:00,
2013-03-22 10:38:00,28.7,20.8,30.03,SE,125,7.0,12.0,72,0.00,,,0.00,341,Wunderground v.1.15,2013-03-22 15:38:00,
2013-03-22 10:43:00,28.7,20.8,30.03,ESE,121,5.0,7.0,72,0.00,,,0.00,399,Wunderground v.1.15,2013-03-22 15:43:00,
2013-03-22 10:44:00,28.8,20.9,30.03,SE,132,6.0,8.0,72,0.00,,,0.00,446,Wunderground v.1.15,2013-03-22 15:44:00,
2013-03-22 10:48:00,29.0,21.1,30.03,ESE,119,4.0,8.0,72,0.00,,,0.00,478,Wunderground v.1.15,2013-03-22 15:48:00,
2013-03-22 10:49:00,29.2,21.3,30.03,SE,138,11.0,11.0,72,0.00,,,0.00,452,Wunderground v.1.15,2013-03-22 15:49:00,
2013-03-22 10:51:00,29.6,21.3,30.03,ESE,106,3.0,6.0,71,0.00,,,0.00,434,Wunderground v.1.15,2013-03-22 15:51:00,
2013-03-22 10:53:00,29.4,20.8,30.03,SE,128,4.0,7.0,70,0.00,,,0.00,459,Wunderground v.1.15,2013-03-22 15:53:00,
2013-03-22 10:54:00,29.4,21.2,30.03,East,94,6.0,7.0,71,0.00,,,0.00,459,Wunderground v.1.15,2013-03-22 15:54:00,
2013-03-22 10:57:00,29.5,20.9,30.03,SE,125,6.0,9.0,70,0.00,,,0.00,454,Wunderground v.1.15,2013-03-22 15:57:00,
2013-03-22 10:59:00,29.9,21.3,30.04,SSE,147,6.0,9.0,70,0.00,,,0.00,543,Wunderground v.1.15,2013-03-22 15:59:00,
2013-03-22 11:00:00,30.0,21.7,30.04,SE,132,8.0,9.0,71,0.00,,,0.00,432,Wunderground v.1.15,2013-03-22 16:00:00,
2013-03-22 11:02:00,29.6,21.0,30.04,SSE,165,5.0,7.0,70,0.00,,,0.00,362,Wunderground v.1.15,2013-03-22 16:02:00,
2013-03-22 11:04:00,29.4,20.5,30.04,SSE,157,1.0,7.0,69,0.00,,,0.00,406,Wunderground v.1.15,2013-03-22 16:04:00,
2013-03-22 11:05:00,29.3,20.4,30.04,SE,126,4.0,7.0,69,0.00,,,0.00,441,Wunderground v.1.15,2013-03-22 16:05:00,
2013-03-22 11:06:00,29.5,20.6,30.04,SE,134,2.0,7.0,69,0.00,,,0.00,483,Wunderground v.1.15,2013-03-22 16:06:00,
2013-03-22 11:08:00,29.6,20.7,30.04,ESE,115,5.0,7.0,69,0.00,,,0.00,508,Wunderground v.1.15,2013-03-22 16:08:00,
2013-03-22 11:09:00,30.1,21.5,30.04,SSE,158,2.0,7.0,70,0.00,,,0.00,580,Wunderground v.1.15,2013-03-22 16:09:00,
2013-03-22 11:10:00,30.1,20.8,30.04,SSE,158,2.0,4.0,68,0.00,,,0.00,550,Wunderground v.1.15,2013-03-22 16:10:00,
2013-03-22 11:11:00,30.2,20.9,30.04,SSE,152,3.0,4.0,68,0.00,,,0.00,519,Wunderground v.1.15,2013-03-22 16:11:00,
2013-03-22 11:14:00,30.4,21.1,30.04,ESE,121,4.0,4.0,68,0.00,,,0.00,645,Wunderground v.1.15,2013-03-22 16:14:00,
2013-03-22 11:17:00,30.8,21.5,30.04,SE,137,4.0,8.0,68,0.00,,,0.00,712,Wunderground v.1.15,2013-03-22 16:17:00,
2013-03-22 11:19:00,31.1,21.4,30.04,SSE,155,4.0,8.0,67,0.00,,,0.00,735,Wunderground v.1.15,2013-03-22 16:19:00,
2013-03-22 11:23:00,30.6,20.6,30.04,ESE,107,0.0,4.0,66,0.00,,,0.00,661,Wunderground v.1.15,2013-03-22 16:23:00,
2013-03-22 11:24:00,30.6,20.6,30.04,ESE,107,1.0,4.0,66,0.00,,,0.00,499,Wunderground v.1.15,2013-03-22 16:24:00,
2013-03-22 11:25:00,30.6,20.2,30.04,ESE,107,0.0,4.0,65,0.00,,,0.00,499,Wunderground v.1.15,2013-03-22 16:25:00,
2013-03-22 11:26:00,30.8,20.4,30.04,ESE,107,0.0,4.0,65,0.00,,,0.00,622,Wunderground v.1.15,2013-03-22 16:26:00,
2013-03-22 11:29:00,31.1,20.3,30.04,ESE,105,5.0,5.0,64,0.00,,,0.00,397,Wunderground v.1.15,2013-03-22 16:29:00,
2013-03-22 11:30:00,31.1,20.3,30.04,ENE,65,5.0,5.0,64,0.00,,,0.00,397,Wunderground v.1.15,2013-03-22 16:30:00,
2013-03-22 11:31:00,31.3,20.5,30.03,ESE,122,7.0,9.0,64,0.00,,,0.00,388,Wunderground v.1.15,2013-03-22 16:31:00,
2013-03-22 11:32:00,31.4,20.6,30.03,ESE,109,8.0,9.0,64,0.00,,,0.00,388,Wunderground v.1.15,2013-03-22 16:32:00,
2013-03-22 11:35:00,31.0,19.9,30.03,ESE,116,2.0,9.0,63,0.00,,,0.00,385,Wunderground v.1.15,2013-03-22 16:35:00,
2013-03-22 11:36:00,31.1,20.7,30.03,ESE,113,3.0,9.0,65,0.00,,,0.00,401,Wunderground v.1.15,2013-03-22 16:36:00,
2013-03-22 11:37:00,31.1,20.3,30.03,ESE,113,2.0,9.0,64,0.00,,,0.00,401,Wunderground v.1.15,2013-03-22 16:37:00,
2013-03-22 11:40:00,31.1,20.3,30.03,ESE,117,5.0,9.0,64,0.00,,,0.00,454,Wunderground v.1.15,2013-03-22 16:40:00,
2013-03-22 11:42:00,31.4,21.0,30.04,ESE,119,2.0,8.0,65,0.00,,,0.00,492,Wunderground v.1.15,2013-03-22 16:42:00,
2013-03-22 11:45:00,31.7,21.3,30.04,ESE,103,4.0,8.0,65,0.00,,,0.00,468,Wunderground v.1.15,2013-03-22 16:45:00,
2013-03-22 11:46:00,31.5,20.3,30.04,East,98,1.0,8.0,63,0.00,,,0.00,436,Wunderground v.1.15,2013-03-22 16:46:00,
2013-03-22 11:47:00,31.3,20.2,30.04,East,90,3.0,8.0,63,0.00,,,0.00,476,Wunderground v.1.15,2013-03-22 16:47:00,
2013-03-22 11:48:00,31.3,20.2,30.04,East,90,3.0,8.0,63,0.00,,,0.00,476,Wunderground v.1.15,2013-03-22 16:48:00,
2013-03-22 11:51:00,31.3,20.2,30.03,ENE,74,4.0,7.0,63,0.00,,,0.00,506,Wunderground v.1.15,2013-03-22 16:51:00,
2013-03-22 11:54:00,31.6,20.4,30.03,East,93,6.0,7.0,63,0.00,,,0.00,515,Wunderground v.1.15,2013-03-22 16:54:00,
2013-03-22 11:56:00,31.6,20.4,30.03,ESE,114,2.0,7.0,63,0.00,,,0.00,517,Wunderground v.1.15,2013-03-22 16:56:00,
2013-03-22 11:58:00,31.6,20.1,30.04,ENE,62,4.0,7.0,62,0.00,,,0.00,541,Wunderground v.1.15,2013-03-22 16:58:00,
2013-03-22 11:59:00,32.0,20.8,30.04,East,93,5.0,7.0,63,0.00,,,0.00,570,Wunderground v.1.15,2013-03-22 16:59:00,
2013-03-22 12:03:00,32.3,20.3,30.04,SE,142,4.0,7.0,61,0.00,,,0.00,475,Wunderground v.1.15,2013-03-22 17:03:00,
2013-03-22 12:04:00,32.3,20.3,30.04,SE,142,4.0,7.0,61,0.00,,,0.00,455,Wunderground v.1.15,2013-03-22 17:04:00,
2013-03-22 12:05:00,32.0,19.7,30.03,East,95,6.0,7.0,60,0.00,,,0.00,492,Wunderground v.1.15,2013-03-22 17:05:00,
2013-03-22 12:09:00,31.8,19.5,30.04,East,91,0.0,7.0,60,0.00,,,0.00,490,Wunderground v.1.15,2013-03-22 17:09:00,
2013-03-22 12:10:00,31.7,19.4,30.04,East,91,0.0,7.0,60,0.00,,,0.00,485,Wunderground v.1.15,2013-03-22 17:10:00,
2013-03-22 12:12:00,31.9,20.7,30.04,East,92,5.0,8.0,63,0.00,,,0.00,527,Wunderground v.1.15,2013-03-22 17:12:00,
2013-03-22 12:15:00,32.1,20.2,30.04,East,88,3.0,8.0,61,0.00,,,0.00,466,Wunderground v.1.15,2013-03-22 17:15:00,
2013-03-22 12:16:00,32.1,20.2,30.04,East,90,3.0,8.0,61,0.00,,,0.00,420,Wunderground v.1.15,2013-03-22 17:16:00,
2013-03-22 12:18:00,32.1,20.5,30.04,SSE,156,3.0,8.0,62,0.00,,,0.00,408,Wunderground v.1.15,2013-03-22 17:18:00,
2013-03-22 12:21:00,32.5,21.3,30.04,ENE,74,2.0,4.0,63,0.00,,,0.00,415,Wunderground v.1.15,2013-03-22 17:21:00,
2013-03-22 12:22:00,32.5,20.5,30.04,ENE,67,3.0,4.0,61,0.00,,,0.00,436,Wunderground v.1.15,2013-03-22 17:22:00,
2013-03-22 12:23:00,32.5,20.5,30.04,East,101,5.0,6.0,61,0.00,,,0.00,436,Wunderground v.1.15,2013-03-22 17:23:00,
2013-03-22 12:24:00,32.6,21.0,30.04,East,101,6.0,6.0,62,0.00,,,0.00,503,Wunderground v.1.15,2013-03-22 17:24:00,
2013-03-22 12:26:00,32.5,20.1,30.04,East,101,6.0,8.0,60,0.00,,,0.00,527,Wunderground v.1.15,2013-03-22 17:26:00,
2013-03-22 12:28:00,32.4,19.7,30.04,ESE,105,2.0,8.0,59,0.00,,,0.00,548,Wunderground v.1.15,2013-03-22 17:28:00,
2013-03-22 12:30:00,32.3,20.0,30.04,ESE,107,5.0,8.0,60,0.00,,,0.00,548,Wunderground v.1.15,2013-03-22 17:30:00,
2013-03-22 12:32:00,32.6,20.6,30.04,ESE,120,3.0,7.0,61,0.00,,,0.00,671,Wunderground v.1.15,2013-03-22 17:32:00,
2013-03-22 12:33:00,32.8,20.8,30.04,ESE,103,3.0,7.0,61,0.00,,,0.00,705,Wunderground v.1.15,2013-03-22 17:33:00,
2013-03-22 12:34:00,32.7,20.3,30.03,East,87,3.0,7.0,60,0.00,,,0.00,563,Wunderground v.1.15,2013-03-22 17:34:00,
2013-03-22 12:37:00,32.4,19.7,30.03,East,89,0.0,7.0,59,0.00,,,0.00,452,Wunderground v.1.15,2013-03-22 17:37:00,
2013-03-22 12:38:00,32.4,19.7,30.03,East,92,2.0,7.0,59,0.00,,,0.00,448,Wunderground v.1.15,2013-03-22 17:38:00,
2013-03-22 12:39:00,32.6,20.2,30.03,East,92,3.0,7.0,60,0.00,,,0.00,452,Wunderground v.1.15,2013-03-22 17:39:00,
2013-03-22 12:43:00,32.8,20.8,30.03,East,90,3.0,7.0,61,0.00,,,0.00,628,Wunderground v.1.15,2013-03-22 17:43:00,
2013-03-22 12:45:00,33.1,21.5,30.03,SE,126,3.0,7.0,62,0.00,,,0.00,619,Wunderground v.1.15,2013-03-22 17:45:00,
2013-03-22 12:48:00,33.7,20.9,30.03,ESE,121,2.0,7.0,59,0.00,,,0.00,752,Wunderground v.1.15,2013-03-22 17:48:00,
2013-03-22 12:50:00,33.7,20.5,30.03,ESE,106,3.0,3.0,58,0.00,,,0.00,682,Wunderground v.1.15,2013-03-22 17:50:00,
2013-03-22 12:54:00,34.6,21.7,30.03,ENE,71,0.0,5.0,59,0.00,,,0.00,552,Wunderground v.1.15,2013-03-22 17:54:00,
2013-03-22 12:55:00,34.7,21.0,30.02,ENE,61,3.0,8.0,57,0.00,,,0.00,527,Wunderground v.1.15,2013-03-22 17:55:00,
2013-03-22 12:56:00,34.5,20.8,30.03,NE,54,6.0,8.0,57,0.00,,,0.00,503,Wunderground v.1.15,2013-03-22 17:56:00,
2013-03-22 13:00:00,34.1,20.4,30.03,ENE,59,1.0,8.0,57,0.00,,,0.00,485,Wunderground v.1.15,2013-03-22 18:00:00,
2013-03-22 13:01:00,34.3,20.6,30.03,ENE,57,1.0,4.0,57,0.00,,,0.00,478,Wunderground v.1.15,2013-03-22 18:01:00,
2013-03-22 13:03:00,33.9,19.8,30.03,ENE,71,2.0,4.0,56,0.00,,,0.00,497,Wunderground v.1.15,2013-03-22 18:03:00,
2013-03-22 13:05:00,33.8,20.2,30.03,East,88,5.0,5.0,57,0.00,,,0.00,499,Wunderground v.1.15,2013-03-22 18:05:00,
2013-03-22 13:06:00,33.9,21.1,30.02,SSE,160,3.0,5.0,59,0.00,,,0.00,606,Wunderground v.1.15,2013-03-22 18:06:00,
2013-03-22 13:08:00,34.5,22.8,30.03,ESE,119,7.0,8.0,62,0.00,,,0.00,635,Wunderground v.1.15,2013-03-22 18:08:00,
2013-03-22 13:09:00,34.4,21.1,30.03,ESE,107,3.0,8.0,58,0.00,,,0.00,587,Wunderground v.1.15,2013-03-22 18:09:00,
2013-03-22 13:11:00,33.9,19.8,30.03,ESE,112,4.0,5.0,56,0.00,,,0.00,559,Wunderground v.1.15,2013-03-22 18:11:00,
2013-03-22 13:12:00,33.8,20.2,30.03,SSE,148,5.0,5.0,57,0.00,,,0.00,573,Wunderground v.1.15,2013-03-22 18:12:00,
2013-03-22 13:13:00,33.8,20.6,30.03,East,93,3.0,7.0,58,0.00,,,0.00,541,Wunderground v.1.15,2013-03-22 18:13:00,
2013-03-22 13:14:00,33.7,20.5,30.03,East,93,1.0,7.0,58,0.00,,,0.00,541,Wunderground v.1.15,2013-03-22 18:14:00,
2013-03-22 13:17:00,33.7,20.5,30.03,SE,126,4.0,7.0,58,0.00,,,0.00,487,Wunderground v.1.15,2013-03-22 18:17:00,
2013-03-22 13:19:00,33.4,20.2,30.03,South,178,1.0,7.0,58,0.00,,,0.00,501,Wunderground v.1.15,2013-03-22 18:19:00,
2013-03-22 13:20:00,33.5,19.9,30.03,South,186,0.0,3.0,57,0.00,,,0.00,538,Wunderground v.1.15,2013-03-22 18:20:00,
2013-03-22 13:22:00,33.9,20.3,30.02,South,186,0.0,3.0,57,0.00,,,0.00,578,Wunderground v.1.15,2013-03-22 18:22:00,
2013-03-22 13:23:00,34.1,20.9,30.02,South,186,1.0,3.0,58,0.00,,,0.00,555,Wunderground v.1.15,2013-03-22 18:23:00,
2013-03-22 13:24:00,34.5,21.6,30.03,SSE,164,3.0,4.0,59,0.00,,,0.00,531,Wunderground v.1.15,2013-03-22 18:24:00,
2013-03-22 13:27:00,34.9,21.6,30.03,SSE,157,1.0,4.0,58,0.00,,,0.00,492,Wunderground v.1.15,2013-03-22 18:27:00,
2013-03-22 13:28:00,34.7,21.4,30.03,ESE,121,1.0,4.0,58,0.00,,,0.00,471,Wunderground v.1.15,2013-03-22 18:28:00,
2013-03-22 13:30:00,34.3,21.0,30.02,East,79,3.0,3.0,58,0.00,,,0.00,450,Wunderground v.1.15,2013-03-22 18:30:00,
2013-03-22 13:32:00,34.6,20.9,30.02,NE,55,4.0,7.0,57,0.00,,,0.00,443,Wunderground v.1.15,2013-03-22 18:32:00,
2013-03-22 13:33:00,34.6,20.9,30.02,ENE,73,5.0,7.0,57,0.00,,,0.00,443,Wunderground v.1.15,2013-03-22 18:33:00,
2013-03-22 13:35:00,34.4,20.3,30.02,ENE,61,5.0,7.0,56,0.00,,,0.00,424,Wunderground v.1.15,2013-03-22 18:35:00,
2013-03-22 13:38:00,34.2,20.1,30.02,East,86,2.0,7.0,56,0.00,,,0.00,441,Wunderground v.1.15,2013-03-22 18:38:00,
2013-03-22 13:40:00,33.9,20.3,30.02,East,86,0.0,7.0,57,0.00,,,0.00,448,Wunderground v.1.15,2013-03-22 18:40:00,
2013-03-22 13:41:00,34.0,20.8,30.02,East,86,1.0,4.0,58,0.00,,,0.00,410,Wunderground v.1.15,2013-03-22 18:41:00,
2013-03-22 13:43:00,34.3,21.4,30.02,SE,126,4.0,4.0,59,0.00,,,0.00,376,Wunderground v.1.15,2013-03-22 18:43:00,
2013-03-22 13:44:00,34.5,21.6,30.02,SE,139,6.0,6.0,59,0.00,,,0.00,364,Wunderground v.1.15,2013-03-22 18:44:00,
2013-03-22 13:46:00,34.6,21.7,30.02,SE,128,5.0,7.0,59,0.00,,,0.00,322,Wunderground v.1.15,2013-03-22 18:46:00,
2013-03-22 13:47:00,34.4,20.7,30.02,ESE,123,3.0,7.0,57,0.00,,,0.00,309,Wunderground v.1.15,2013-03-22 18:47:00,
2013-03-22 13:48:00,34.4,20.7,30.02,ESE,123,3.0,7.0,57,0.00,,,0.00,299,Wunderground v.1.15,2013-03-22 18:48:00,
2013-03-22 13:49:00,34.2,20.5,30.02,ESE,105,1.0,7.0,57,0.00,,,0.00,294,Wunderground v.1.15,2013-03-22 18:49:00,
2013-03-22 13:52:00,34.1,20.9,30.02,SE,132,0.0,4.0,58,0.00,,,0.00,297,Wunderground v.1.15,2013-03-22 18:52:00,
2013-03-22 13:53:00,34.2,21.4,30.02,NE,49,3.0,4.0,59,0.00,,,0.00,302,Wunderground v.1.15,2013-03-22 18:53:00,
2013-03-22 13:55:00,34.4,21.1,30.02,NE,49,0.0,4.0,58,0.00,,,0.00,315,Wunderground v.1.15,2013-03-22 18:55:00,
2013-03-22 13:58:00,34.4,20.3,30.02,ESE,106,0.0,4.0,56,0.00,,,0.00,313,Wunderground v.1.15,2013-03-22 18:58:00,
2013-03-22 13:59:00,34.5,20.4,30.02,ESE,106,0.0,4.0,56,0.00,,,0.00,311,Wunderground v.1.15,2013-03-22 18:59:00,
2013-03-22 14:00:00,34.6,20.5,30.02,ESE,106,0.0,4.0,56,0.00,,,0.00,313,Wunderground v.1.15,2013-03-22 19:00:00,
2013-03-22 14:05:00,34.3,20.2,30.02,SE,142,0.0,4.0,56,0.00,,,0.00,311,Wunderground v.1.15,2013-03-22 19:05:00,
2013-03-22 14:07:00,34.4,20.3,30.02,SE,142,0.0,4.0,56,0.00,,,0.00,322,Wunderground v.1.15,2013-03-22 19:07:00,
2013-03-22 14:10:00,34.8,20.7,30.02,SE,142,0.0,1.0,56,0.00,,,0.00,346,Wunderground v.1.15,2013-03-22 19:10:00,
2013-03-22 14:12:00,35.0,21.3,30.02,SE,142,0.0,1.0,57,0.00,,,0.00,364,Wunderground v.1.15,2013-03-22 19:12:00,
2013-03-22 14:15:00,35.4,21.7,30.01,SE,142,0.0,1.0,57,0.00,,,0.00,380,Wunderground v.1.15,2013-03-22 19:15:00,
2013-03-22 14:17:00,35.6,22.3,30.01,ENE,63,4.0,5.0,58,0.00,,,0.00,380,Wunderground v.1.15,2013-03-22 19:17:00,
2013-03-22 14:18:00,35.4,21.2,30.01,NNE,13,2.0,5.0,56,0.00,,,0.00,380,Wunderground v.1.15,2013-03-22 19:18:00,
2013-03-22 14:19:00,35.3,21.2,30.01,NNE,13,2.0,5.0,56,0.00,,,0.00,380,Wunderground v.1.15,2013-03-22 19:19:00,
2013-03-22 14:20:00,35.3,20.7,30.01,ENE,78,4.0,5.0,55,0.00,,,0.00,369,Wunderground v.1.15,2013-03-22 19:20:00,
2013-03-22 14:23:00,35.0,20.9,30.01,NE,56,3.0,5.0,56,0.00,,,0.00,346,Wunderground v.1.15,2013-03-22 19:23:00,
2013-03-22 14:24:00,35.0,20.9,30.01,NE,56,1.0,5.0,56,0.00,,,0.00,346,Wunderground v.1.15,2013-03-22 19:24:00,
2013-03-22 14:25:00,35.0,20.9,30.01,ENE,65,2.0,5.0,56,0.00,,,0.00,345,Wunderground v.1.15,2013-03-22 19:25:00,
2013-03-22 14:26:00,35.2,21.5,30.01,NE,51,2.0,5.0,57,0.00,,,0.00,338,Wunderground v.1.15,2013-03-22 19:26:00,
2013-03-22 14:30:00,35.5,20.9,30.01,NE,44,1.0,5.0,55,0.00,,,0.00,315,Wunderground v.1.15,2013-03-22 19:30:00,
2013-03-22 14:33:00,35.3,21.6,30.01,NNW,346,1.0,3.0,57,0.00,,,0.00,304,Wunderground v.1.15,2013-03-22 19:33:00,
2013-03-22 14:35:00,35.2,20.6,30.01,NNW,346,0.0,3.0,55,0.00,,,0.00,301,Wunderground v.1.15,2013-03-22 19:35:00,
2013-03-22 14:36:00,35.1,21.8,30.01,NNW,327,3.0,3.0,58,0.00,,,0.00,297,Wunderground v.1.15,2013-03-22 19:36:00,
2013-03-22 14:39:00,35.1,21.4,30.01,WNW,282,2.0,5.0,57,0.00,,,0.00,294,Wunderground v.1.15,2013-03-22 19:39:00,
2013-03-22 14:41:00,34.9,21.2,30.01,West,277,2.0,3.0,57,0.00,,,0.00,297,Wunderground v.1.15,2013-03-22 19:41:00,
2013-03-22 14:42:00,34.9,21.2,30.01,West,275,1.0,3.0,57,0.00,,,0.00,299,Wunderground v.1.15,2013-03-22 19:42:00,
2013-03-22 14:44:00,34.9,21.2,30.01,West,275,2.0,3.0,57,0.00,,,0.00,313,Wunderground v.1.15,2013-03-22 19:44:00,
2013-03-22 14:47:00,35.0,20.9,30.01,West,275,0.0,3.0,56,0.00,,,0.00,315,Wunderground v.1.15,2013-03-22 19:47:00,
2013-03-22 14:50:00,35.7,22.4,30.01,South,182,1.0,3.0,58,0.00,,,0.00,301,Wunderground v.1.15,2013-03-22 19:50:00,
2013-03-22 14:53:00,35.7,21.5,30.00,SE,128,4.0,4.0,56,0.00,,,0.00,288,Wunderground v.1.15,2013-03-22 19:53:00,
2013-03-22 14:55:00,35.4,21.2,30.00,ESE,107,3.0,4.0,56,0.00,,,0.00,288,Wunderground v.1.15,2013-03-22 19:55:00,
2013-03-22 14:58:00,35.2,21.5,30.00,East,96,5.0,5.0,57,0.00,,,0.00,287,Wunderground v.1.15,2013-03-22 19:58:00,
2013-03-22 15:00:00,35.1,21.0,30.00,East,82,1.0,2.0,56,0.00,,,0.00,283,Wunderground v.1.15,2013-03-22 20:00:00,
2013-03-22 15:02:00,35.2,21.1,30.00,NNE,28,2.0,2.0,56,0.00,,,0.00,278,Wunderground v.1.15,2013-03-22 20:02:00,
2013-03-22 15:03:00,35.4,20.8,30.00,NNE,15,1.0,3.0,55,0.00,,,0.00,276,Wunderground v.1.15,2013-03-22 20:03:00,
2013-03-22 15:06:00,35.6,21.4,30.00,NNE,16,3.0,3.0,56,0.00,,,0.00,279,Wunderground v.1.15,2013-03-22 20:06:00,
2013-03-22 15:07:00,35.6,21.4,30.00,NNE,16,0.0,3.0,56,0.00,,,0.00,279,Wunderground v.1.15,2013-03-22 20:07:00,
2013-03-22 15:09:00,35.9,21.7,30.00,NNE,17,1.0,3.0,56,0.00,,,0.00,278,Wunderground v.1.15,2013-03-22 20:09:00,
2013-03-22 15:12:00,36.1,22.3,30.00,ESE,106,1.0,7.0,57,0.00,,,0.00,269,Wunderground v.1.15,2013-03-22 20:12:00,
2013-03-22 15:15:00,35.8,20.8,30.00,South,182,0.0,7.0,54,0.00,,,0.00,265,Wunderground v.1.15,2013-03-22 20:15:00,
2013-03-22 15:18:00,35.6,20.6,30.00,South,186,2.0,7.0,54,0.00,,,0.00,285,Wunderground v.1.15,2013-03-22 20:18:00,
2013-03-22 15:20:00,35.6,21.0,30.00,SSW,205,2.0,2.0,55,0.00,,,0.00,316,Wunderground v.1.15,2013-03-22 20:20:00,
2013-03-22 15:21:00,35.8,22.0,30.00,South,188,3.0,3.0,57,0.00,,,0.00,334,Wunderground v.1.15,2013-03-22 20:21:00,
2013-03-22 15:22:00,35.9,21.7,30.00,ESE,107,7.0,7.0,56,0.00,,,0.00,343,Wunderground v.1.15,2013-03-22 20:22:00,
2013-03-22 15:23:00,36.0,22.2,30.00,ENE,78,5.0,8.0,57,0.00,,,0.00,343,Wunderground v.1.15,2013-03-22 20:23:00,
2013-03-22 15:26:00,36.3,21.7,30.00,SW,215,3.0,8.0,55,0.00,,,0.00,341,Wunderground v.1.15,2013-03-22 20:26:00,
2013-03-22 15:28:00,36.4,22.2,30.00,SSW,195,0.0,8.0,56,0.00,,,0.00,336,Wunderground v.1.15,2013-03-22 20:28:00,
2013-03-22 15:29:00,36.4,21.8,30.00,SSW,195,1.0,8.0,55,0.00,,,0.00,330,Wunderground v.1.15,2013-03-22 20:29:00,
2013-03-22 15:33:00,36.5,22.3,30.00,SW,232,3.0,5.0,56,0.00,,,0.00,313,Wunderground v.1.15,2013-03-22 20:33:00,
2013-03-22 15:34:00,36.3,21.2,30.00,SW,232,0.0,5.0,54,0.00,,,0.00,308,Wunderground v.1.15,2013-03-22 20:34:00,
2013-03-22 15:35:00,36.2,21.1,30.00,SW,232,1.0,5.0,54,0.00,,,0.00,302,Wunderground v.1.15,2013-03-22 20:35:00,
2013-03-22 15:39:00,36.1,20.6,30.00,South,184,5.0,7.0,53,0.00,,,0.00,272,Wunderground v.1.15,2013-03-22 20:39:00,
2013-03-22 15:40:00,36.3,22.5,30.00,ESE,114,4.0,4.0,57,0.00,,,0.00,271,Wunderground v.1.15,2013-03-22 20:40:00,
2013-03-22 15:41:00,36.4,21.8,30.00,ESE,104,3.0,4.0,55,0.00,,,0.00,269,Wunderground v.1.15,2013-03-22 20:41:00,
2013-03-22 15:42:00,36.4,21.8,30.00,ENE,72,4.0,4.0,55,0.00,,,0.00,269,Wunderground v.1.15,2013-03-22 20:42:00,
2013-03-22 15:45:00,36.1,21.0,30.00,ENE,70,1.0,4.0,54,0.00,,,0.00,267,Wunderground v.1.15,2013-03-22 20:45:00,
2013-03-22 15:46:00,36.0,20.9,30.00,ENE,70,2.0,4.0,54,0.00,,,0.00,269,Wunderground v.1.15,2013-03-22 20:46:00,
2013-03-22 15:48:00,36.0,20.9,30.00,ENE,76,2.0,4.0,54,0.00,,,0.00,272,Wunderground v.1.15,2013-03-22 20:48:00,
2013-03-22 15:51:00,35.9,20.9,29.99,ENE,71,1.0,3.0,54,0.00,,,0.00,276,Wunderground v.1.15,2013-03-22 20:51:00,
2013-03-22 15:52:00,35.8,20.3,29.99,ENE,71,1.0,3.0,53,0.00,,,0.00,274,Wunderground v.1.15,2013-03-22 20:52:00,
2013-03-22 15:53:00,35.9,20.4,29.99,ENE,71,0.0,3.0,53,0.00,,,0.00,274,Wunderground v.1.15,2013-03-22 20:53:00,
2013-03-22 15:54:00,36.0,20.5,29.99,ENE,71,0.0,3.0,53,0.00,,,0.00,269,Wunderground v.1.15,2013-03-22 20:54:00,
2013-03-22 15:58:00,36.1,21.5,29.99,ENE,71,0.0,3.0,55,0.00,,,0.00,246,Wunderground v.1.15,2013-03-22 20:58:00,
2013-03-22 15:59:00,36.2,21.6,29.99,ENE,71,0.0,3.0,55,0.00,,,0.00,241,Wunderground v.1.15,2013-03-22 20:59:00,
2013-03-22 16:00:00,36.2,21.1,29.99,ENE,71,2.0,2.0,54,0.00,,,0.00,232,Wunderground v.1.15,2013-03-22 21:00:00,
2013-03-22 16:02:00,36.3,20.8,29.99,NNE,15,2.0,2.0,53,0.00,,,0.00,221,Wunderground v.1.15,2013-03-22 21:02:00,
2013-03-22 16:04:00,36.4,20.9,29.99,ENE,71,2.0,5.0,53,0.00,,,0.00,214,Wunderground v.1.15,2013-03-22 21:04:00,
2013-03-22 16:05:00,36.3,20.8,29.99,ENE,73,3.0,5.0,53,0.00,,,0.00,213,Wunderground v.1.15,2013-03-22 21:05:00,
2013-03-22 16:07:00,36.0,20.5,29.99,ENE,69,0.0,5.0,53,0.00,,,0.00,213,Wunderground v.1.15,2013-03-22 21:07:00,
2013-03-22 16:08:00,36.0,20.9,29.99,ENE,60,2.0,5.0,54,0.00,,,0.00,213,Wunderground v.1.15,2013-03-22 21:08:00,
2013-03-22 16:10:00,36.1,21.5,29.99,ENE,61,5.0,5.0,55,0.00,,,0.00,213,Wunderground v.1.15,2013-03-22 21:10:00,
2013-03-22 16:14:00,36.3,21.2,29.99,ENE,63,3.0,7.0,54,0.00,,,0.00,225,Wunderground v.1.15,2013-03-22 21:14:00,
2013-03-22 16:15:00,36.3,20.8,29.99,East,84,5.0,7.0,53,0.00,,,0.00,227,Wunderground v.1.15,2013-03-22 21:15:00,
2013-03-22 16:18:00,36.3,21.2,29.99,East,95,5.0,7.0,54,0.00,,,0.00,230,Wunderground v.1.15,2013-03-22 21:18:00,
2013-03-22 16:20:00,36.3,21.2,29.99,East,99,0.0,7.0,54,0.00,,,0.00,230,Wunderground v.1.15,2013-03-22 21:20:00,
2013-03-22 16:24:00,36.3,22.1,29.99,East,88,2.0,5.0,56,0.00,,,0.00,237,Wunderground v.1.15,2013-03-22 21:24:00,
2013-03-22 16:25:00,36.3,21.7,29.99,East,94,3.0,5.0,55,0.00,,,0.00,248,Wunderground v.1.15,2013-03-22 21:25:00,
2013-03-22 16:26:00,36.3,21.7,29.99,ENE,77,3.0,5.0,55,0.00,,,0.00,246,Wunderground v.1.15,2013-03-22 21:26:00,
2013-03-22 16:29:00,36.0,21.4,29.99,East,100,1.0,5.0,55,0.00,,,0.00,246,Wunderground v.1.15,2013-03-22 21:29:00,
2013-03-22 16:31:00,36.0,20.9,29.99,East,88,2.0,3.0,54,0.00,,,0.00,237,Wunderground v.1.15,2013-03-22 21:31:00,
2013-03-22 16:32:00,36.0,20.9,29.99,East,88,3.0,3.0,54,0.00,,,0.00,237,Wunderground v.1.15,2013-03-22 21:32:00,
2013-03-22 16:35:00,36.0,20.9,29.99,ENE,70,2.0,3.0,54,0.00,,,0.00,211,Wunderground v.1.15,2013-03-22 21:35:00,
2013-03-22 16:37:00,36.1,21.0,29.99,East,90,5.0,5.0,54,0.00,,,0.00,207,Wunderground v.1.15,2013-03-22 21:37:00,
2013-03-22 16:38:00,36.1,20.6,29.99,East,86,2.0,5.0,53,0.00,,,0.00,207,Wunderground v.1.15,2013-03-22 21:38:00,
2013-03-22 16:40:00,36.2,21.1,29.99,ENE,62,3.0,3.0,54,0.00,,,0.00,207,Wunderground v.1.15,2013-03-22 21:40:00,
2013-03-22 16:43:00,36.3,21.2,29.99,NE,55,1.0,3.0,54,0.00,,,0.00,211,Wunderground v.1.15,2013-03-22 21:43:00,
2013-03-22 16:44:00,36.4,21.3,29.99,NE,55,2.0,3.0,54,0.00,,,0.00,209,Wunderground v.1.15,2013-03-22 21:44:00,
2013-03-22 16:45:00,36.6,21.5,29.99,NE,55,1.0,3.0,54,0.00,,,0.00,206,Wunderground v.1.15,2013-03-22 21:45:00,
2013-03-22 16:47:00,36.8,21.7,29.99,ESE,103,2.0,3.0,54,0.00,,,0.00,202,Wunderground v.1.15,2013-03-22 21:47:00,
2013-03-22 16:48:00,36.8,21.7,29.99,ENE,75,2.0,4.0,54,0.00,,,0.00,199,Wunderground v.1.15,2013-03-22 21:48:00,
2013-03-22 16:52:00,36.7,20.7,29.99,ENE,63,1.0,4.0,52,0.00,,,0.00,190,Wunderground v.1.15,2013-03-22 21:52:00,
2013-03-22 16:53:00,36.5,21.0,29.99,ENE,63,2.0,4.0,53,0.00,,,0.00,188,Wunderground v.1.15,2013-03-22 21:53:00,
2013-03-22 16:58:00,36.6,21.1,29.99,ENE,59,1.0,4.0,53,0.00,,,0.00,176,Wunderground v.1.15,2013-03-22 21:58:00,
2013-03-22 16:59:00,36.6,21.1,29.99,ENE,59,2.0,4.0,53,0.00,,,0.00,176,Wunderground v.1.15,2013-03-22 21:59:00,
2013-03-22 17:00:00,36.5,21.0,29.99,ESE,102,5.0,5.0,53,0.00,,,0.00,176,Wunderground v.1.15,2013-03-22 22:00:00,
2013-03-22 17:04:00,36.2,21.1,30.00,East,83,2.0,6.0,54,0.00,,,0.00,167,Wunderground v.1.15,2013-03-22 22:04:00,
2013-03-22 17:09:00,36.0,20.5,29.99,East,82,0.0,6.0,53,0.00,,,0.00,141,Wunderground v.1.15,2013-03-22 22:09:00,
2013-03-22 17:10:00,36.0,20.9,29.99,East,82,1.0,6.0,54,0.00,,,0.00,137,Wunderground v.1.15,2013-03-22 22:10:00,
2013-03-22 17:11:00,36.0,21.4,29.99,East,82,0.0,2.0,55,0.00,,,0.00,134,Wunderground v.1.15,2013-03-22 22:11:00,
2013-03-22 17:14:00,36.2,21.1,30.00,ENE,64,4.0,4.0,54,0.00,,,0.00,121,Wunderground v.1.15,2013-03-22 22:14:00,
2013-03-22 17:15:00,36.3,21.2,30.00,East,96,1.0,4.0,54,0.00,,,0.00,116,Wunderground v.1.15,2013-03-22 22:15:00,
2013-03-22 17:16:00,36.3,21.2,30.00,East,96,0.0,4.0,54,0.00,,,0.00,116,Wunderground v.1.15,2013-03-22 22:16:00,
2013-03-22 17:19:00,36.2,21.6,30.00,ENE,76,2.0,4.0,55,0.00,,,0.00,107,Wunderground v.1.15,2013-03-22 22:19:00,
2013-03-22 17:20:00,36.2,21.1,30.00,ENE,76,0.0,1.0,54,0.00,,,0.00,102,Wunderground v.1.15,2013-03-22 22:20:00,
2013-03-22 17:21:00,36.2,21.1,30.00,ENE,76,0.0,1.0,54,0.00,,,0.00,102,Wunderground v.1.15,2013-03-22 22:21:00,
2013-03-22 17:25:00,36.2,20.7,30.00,ENE,63,0.0,5.0,53,0.00,,,0.00,97,Wunderground v.1.15,2013-03-22 22:25:00,
2013-03-22 17:26:00,36.1,21.0,30.00,ENE,63,2.0,5.0,54,0.00,,,0.00,95,Wunderground v.1.15,2013-03-22 22:26:00,
2013-03-22 17:27:00,36.1,20.6,30.00,ENE,63,0.0,5.0,53,0.00,,,0.00,95,Wunderground v.1.15,2013-03-22 22:27:00,
2013-03-22 17:29:00,36.1,21.0,30.00,ENE,63,0.0,5.0,54,0.00,,,0.00,93,Wunderground v.1.15,2013-03-22 22:29:00,
2013-03-22 17:32:00,36.2,21.1,30.00,ENE,61,1.0,3.0,54,0.00,,,0.00,84,Wunderground v.1.15,2013-03-22 22:32:00,
2013-03-22 17:34:00,36.2,20.7,30.00,ENE,61,0.0,3.0,53,0.00,,,0.00,76,Wunderground v.1.15,2013-03-22 22:34:00,
2013-03-22 17:37:00,36.1,21.0,30.00,NE,54,0.0,3.0,54,0.00,,,0.00,58,Wunderground v.1.15,2013-03-22 22:37:00,
2013-03-22 17:40:00,36.0,20.9,30.00,NE,54,1.0,1.0,54,0.00,,,0.00,42,Wunderground v.1.15,2013-03-22 22:40:00,
2013-03-22 17:41:00,36.0,20.9,30.00,NE,54,0.0,1.0,54,0.00,,,0.00,42,Wunderground v.1.15,2013-03-22 22:41:00,
2013-03-22 17:42:00,36.0,21.4,30.00,NE,54,3.0,3.0,55,0.00,,,0.00,40,Wunderground v.1.15,2013-03-22 22:42:00,
2013-03-22 17:43:00,35.9,21.3,30.00,NE,54,0.0,3.0,55,0.00,,,0.00,39,Wunderground v.1.15,2013-03-22 22:43:00,
2013-03-22 17:47:00,35.9,21.3,30.00,NE,54,2.0,3.0,55,0.00,,,0.00,40,Wunderground v.1.15,2013-03-22 22:47:00,
2013-03-22 17:49:00,35.9,21.3,30.00,NE,54,0.0,3.0,55,0.00,,,0.00,39,Wunderground v.1.15,2013-03-22 22:49:00,
2013-03-22 17:50:00,35.9,21.3,30.00,NE,54,2.0,3.0,55,0.00,,,0.00,39,Wunderground v.1.15,2013-03-22 22:50:00,
2013-03-22 17:52:00,35.8,21.6,30.00,NE,54,1.0,2.0,56,0.00,,,0.00,35,Wunderground v.1.15,2013-03-22 22:52:00,
2013-03-22 17:53:00,35.8,21.6,30.00,NE,51,1.0,3.0,56,0.00,,,0.00,35,Wunderground v.1.15,2013-03-22 22:53:00,
2013-03-22 17:54:00,35.8,21.6,30.00,NE,50,2.0,3.0,56,0.00,,,0.00,32,Wunderground v.1.15,2013-03-22 22:54:00,
2013-03-22 17:55:00,35.8,21.6,30.00,NE,50,1.0,3.0,56,0.00,,,0.00,32,Wunderground v.1.15,2013-03-22 22:55:00,
2013-03-22 17:58:00,35.8,21.6,30.00,NNE,28,2.0,3.0,56,0.00,,,0.00,28,Wunderground v.1.15,2013-03-22 22:58:00,
2013-03-22 17:59:00,35.8,21.6,30.00,NNE,28,2.0,3.0,56,0.00,,,0.00,26,Wunderground v.1.15,2013-03-22 22:59:00,
2013-03-22 18:01:00,35.8,21.6,30.01,NNE,28,2.0,3.0,56,0.00,,,0.00,23,Wunderground v.1.15,2013-03-22 23:01:00,
2013-03-22 18:03:00,35.8,21.6,30.01,NNE,28,2.0,3.0,56,0.00,,,0.00,21,Wunderground v.1.15,2013-03-22 23:03:00,
2013-03-22 18:04:00,35.7,21.5,30.01,NNE,28,3.0,3.0,56,0.00,,,0.00,21,Wunderground v.1.15,2013-03-22 23:04:00,
2013-03-22 18:05:00,35.8,21.6,30.01,NNE,28,2.0,3.0,56,0.00,,,0.00,23,Wunderground v.1.15,2013-03-22 23:05:00,
2013-03-22 18:09:00,35.7,21.5,30.01,NNE,28,1.0,3.0,56,0.00,,,0.00,25,Wunderground v.1.15,2013-03-22 23:09:00,
2013-03-22 18:10:00,35.7,21.5,30.01,NNE,28,0.0,1.0,56,0.00,,,0.00,26,Wunderground v.1.15,2013-03-22 23:10:00,
2013-03-22 18:11:00,35.7,21.5,30.01,NNE,28,0.0,1.0,56,0.00,,,0.00,26,Wunderground v.1.15,2013-03-22 23:11:00,
2013-03-22 18:15:00,35.7,21.9,30.01,NNE,28,0.0,1.0,57,0.00,,,0.00,26,Wunderground v.1.15,2013-03-22 23:15:00,
2013-03-22 18:17:00,35.7,21.9,30.01,NNE,28,2.0,2.0,57,0.00,,,0.00,25,Wunderground v.1.15,2013-03-22 23:17:00,
2013-03-22 18:20:00,35.6,21.9,30.02,NNE,29,1.0,1.0,57,0.00,,,0.00,21,Wunderground v.1.15,2013-03-22 23:20:00,
2013-03-22 18:22:00,35.6,21.9,30.02,NNE,29,1.0,1.0,57,0.00,,,0.00,21,Wunderground v.1.15,2013-03-22 23:22:00,
2013-03-22 18:23:00,35.6,21.9,30.01,NNE,29,3.0,3.0,57,0.00,,,0.00,21,Wunderground v.1.15,2013-03-22 23:23:00,
2013-03-22 18:25:00,35.6,21.4,30.01,NNE,29,2.0,3.0,56,0.00,,,0.00,23,Wunderground v.1.15,2013-03-22 23:25:00,
2013-03-22 18:27:00,35.6,21.4,30.02,NNE,29,0.0,3.0,56,0.00,,,0.00,23,Wunderground v.1.15,2013-03-22 23:27:00,
2013-03-22 18:28:00,35.6,21.4,30.02,NNE,29,2.0,3.0,56,0.00,,,0.00,21,Wunderground v.1.15,2013-03-22 23:28:00,
2013-03-22 18:29:00,35.6,21.4,30.02,NNE,29,1.0,3.0,56,0.00,,,0.00,21,Wunderground v.1.15,2013-03-22 23:29:00,
2013-03-22 18:31:00,35.6,21.4,30.02,NNE,29,0.0,1.0,56,0.00,,,0.00,21,Wunderground v.1.15,2013-03-22 23:31:00,
2013-03-22 18:33:00,35.5,21.8,30.02,NNE,29,0.0,1.0,57,0.00,,,0.00,21,Wunderground v.1.15,2013-03-22 23:33:00,
2013-03-22 18:34:00,35.5,21.3,30.02,NNE,29,0.0,1.0,56,0.00,,,0.00,21,Wunderground v.1.15,2013-03-22 23:34:00,
2013-03-22 18:36:00,35.5,21.8,30.02,NNE,29,2.0,2.0,57,0.00,,,0.00,19,Wunderground v.1.15,2013-03-22 23:36:00,
2013-03-22 18:37:00,35.5,21.3,30.02,NNE,29,2.0,2.0,56,0.00,,,0.00,18,Wunderground v.1.15,2013-03-22 23:37:00,
2013-03-22 18:38:00,35.5,21.3,30.02,NNE,29,0.0,2.0,56,0.00,,,0.00,18,Wunderground v.1.15,2013-03-22 23:38:00,
2013-03-22 18:40:00,35.5,21.8,30.02,NNE,29,0.0,2.0,57,0.00,,,0.00,16,Wunderground v.1.15,2013-03-22 23:40:00,
2013-03-22 18:42:00,35.4,21.2,30.02,NNE,29,0.0,2.0,56,0.00,,,0.00,12,Wunderground v.1.15,2013-03-22 23:42:00,
2013-03-22 18:43:00,35.4,21.7,30.02,NNE,29,0.0,2.0,57,0.00,,,0.00,12,Wunderground v.1.15,2013-03-22 23:43:00,
2013-03-22 18:45:00,35.3,21.6,30.02,NNE,29,0.0,2.0,57,0.00,,,0.00,12,Wunderground v.1.15,2013-03-22 23:45:00,
2013-03-22 18:48:00,35.2,22.3,30.02,NNE,29,2.0,2.0,59,0.00,,,0.00,12,Wunderground v.1.15,2013-03-22 23:48:00,
2013-03-22 18:49:00,35.2,22.3,30.02,NNE,29,1.0,2.0,59,0.00,,,0.00,12,Wunderground v.1.15,2013-03-22 23:49:00,
2013-03-22 18:50:00,35.1,22.6,30.02,NNE,29,0.0,0.0,60,0.00,,,0.00,14,Wunderground v.1.15,2013-03-22 23:50:00,
2013-03-22 18:55:00,35.0,23.3,30.02,NNE,29,0.0,2.0,62,0.00,,,0.00,14,Wunderground v.1.15,2013-03-22 23:55:00,
2013-03-22 18:56:00,35.0,23.7,30.02,NNE,29,0.0,2.0,63,0.00,,,0.00,12,Wunderground v.1.15,2013-03-22 23:56:00,
2013-03-22 18:57:00,34.8,23.9,30.02,NNE,29,1.0,2.0,64,0.00,,,0.00,12,Wunderground v.1.15,2013-03-22 23:57:00,
2013-03-22 19:00:00,34.8,23.9,30.02,NNE,29,0.0,1.0,64,0.00,,,0.00,12,Wunderground v.1.15,2013-03-23 00:00:00,
2013-03-22 19:01:00,34.7,23.8,30.02,NNE,29,0.0,1.0,64,0.00,,,0.00,12,Wunderground v.1.15,2013-03-23 00:01:00,
2013-03-22 19:02:00,34.7,24.1,30.02,NNE,29,0.0,1.0,65,0.00,,,0.00,12,Wunderground v.1.15,2013-03-23 00:02:00,
2013-03-22 19:07:00,34.4,24.2,30.02,NNE,29,1.0,1.0,66,0.00,,,0.00,11,Wunderground v.1.15,2013-03-23 00:07:00,
2013-03-22 19:08:00,34.4,24.2,30.02,NNE,29,2.0,3.0,66,0.00,,,0.00,11,Wunderground v.1.15,2013-03-23 00:08:00,
2013-03-22 19:12:00,34.4,24.2,30.02,NNE,20,3.0,3.0,66,0.00,,,0.00,7,Wunderground v.1.15,2013-03-23 00:12:00,
2013-03-22 19:13:00,34.4,24.2,30.02,NNE,20,1.0,3.0,66,0.00,,,0.00,5,Wunderground v.1.15,2013-03-23 00:13:00,
2013-03-22 19:14:00,34.4,24.6,30.02,NNE,20,2.0,3.0,67,0.00,,,0.00,5,Wunderground v.1.15,2013-03-23 00:14:00,
2013-03-22 19:18:00,34.2,24.7,30.02,NNE,18,1.0,3.0,68,0.00,,,0.00,5,Wunderground v.1.15,2013-03-23 00:18:00,
2013-03-22 19:19:00,34.1,24.6,30.02,NNE,18,0.0,3.0,68,0.00,,,0.00,0,Wunderground v.1.15,2013-03-23 00:19:00,
2013-03-22 19:23:00,33.8,24.7,30.02,NNE,18,0.0,2.0,69,0.00,,,0.00,0,Wunderground v.1.15,2013-03-23 00:23:00,
2013-03-22 19:24:00,33.8,25.0,30.02,NNE,18,0.0,3.0,70,0.00,,,0.00,0,Wunderground v.1.15,2013-03-23 00:24:00,
2013-03-22 19:29:00,33.7,25.0,30.02,NNE,26,1.0,3.0,70,0.00,,,0.00,0,Wunderground v.1.15,2013-03-23 00:29:00,
2013-03-22 19:31:00,33.7,25.0,30.02,NNE,28,1.0,4.0,70,0.00,,,0.00,0,Wunderground v.1.15,2013-03-23 00:31:00,
2013-03-22 19:34:00,33.6,24.9,30.02,NNE,30,1.0,4.0,70,0.00,,,0.00,0,Wunderground v.1.15,2013-03-23 00:34:00,
2013-03-22 19:35:00,33.6,24.9,30.02,NNE,30,1.0,4.0,70,0.00,,,0.00,0,Wunderground v.1.15,2013-03-23 00:35:00,
2013-03-22 19:36:00,33.6,24.9,30.02,NNE,30,1.0,4.0,70,0.00,,,0.00,0,Wunderground v.1.15,2013-03-23 00:36:00,
2013-03-22 19:39:00,33.6,24.9,30.02,NE,34,1.0,4.0,70,0.00,,,0.00,0,Wunderground v.1.15,2013-03-23 00:39:00,
2013-03-22 19:40:00,33.5,24.8,30.02,NE,34,0.0,2.0,70,0.00,,,0.00,0,Wunderground v.1.15,2013-03-23 00:40:00,
2013-03-22 19:41:00,33.5,24.8,30.02,NE,36,0.0,2.0,70,0.00,,,0.00,0,Wunderground v.1.15,2013-03-23 00:41:00,
2013-03-22 19:44:00,33.5,25.1,30.02,NNE,17,2.0,3.0,71,0.00,,,0.00,0,Wunderground v.1.15,2013-03-23 00:44:00,
2013-03-22 19:45:00,33.5,25.1,30.02,NNE,30,3.0,3.0,71,0.00,,,0.00,0,Wunderground v.1.15,2013-03-23 00:45:00,
2013-03-22 19:46:00,33.5,25.1,30.02,NNE,30,1.0,3.0,71,0.00,,,0.00,0,Wunderground v.1.15,2013-03-23 00:46:00,
2013-03-22 19:47:00,33.5,25.1,30.02,NNE,26,0.0,3.0,71,0.00,,,0.00,0,Wunderground v.1.15,2013-03-23 00:47:00,
2013-03-22 19:50:00,33.5,25.1,30.02,NNE,26,1.0,3.0,71,0.00,,,0.00,0,Wunderground v.1.15,2013-03-23 00:50:00,
2013-03-22 19:53:00,33.4,25.0,30.02,NNE,26,0.0,1.0,71,0.00,,,0.00,0,Wunderground v.1.15,2013-03-23 00:53:00,
2013-03-22 19:54:00,33.4,25.0,30.02,NNE,26,0.0,1.0,71,0.00,,,0.00,0,Wunderground v.1.15,2013-03-23 00:54:00,
2013-03-22 19:55:00,33.4,25.0,30.02,NNE,26,0.0,1.0,71,0.00,,,0.00,0,Wunderground v.1.15,2013-03-23 00:55:00,
2013-03-22 19:57:00,33.4,25.3,30.02,NNE,26,0.0,1.0,72,0.00,,,0.00,0,Wunderground v.1.15,2013-03-23 00:57:00,
2013-03-22 20:00:00,33.4,25.0,30.02,NNE,27,2.0,2.0,71,0.00,,,0.00,0,Wunderground v.1.15,2013-03-23 01:00:00,
2013-03-22 20:02:00,33.4,25.0,30.02,NNE,27,2.0,2.0,71,0.00,,,0.00,0,Wunderground v.1.15,2013-03-23 01:02:00,
2013-03-22 20:03:00,33.4,25.3,30.02,NNE,28,2.0,2.0,72,0.00,,,0.00,0,Wunderground v.1.15,2013-03-23 01:03:00,
2013-03-22 20:06:00,33.4,25.3,30.02,NNE,30,1.0,3.0,72,0.00,,,0.00,0,Wunderground v.1.15,2013-03-23 01:06:00,
2013-03-22 20:08:00,33.4,25.3,30.02,NE,34,2.0,3.0,72,0.00,,,0.00,0,Wunderground v.1.15,2013-03-23 01:08:00,
2013-03-22 20:09:00,33.4,25.0,30.02,ENE,57,2.0,4.0,71,0.00,,,0.00,0,Wunderground v.1.15,2013-03-23 01:09:00,
2013-03-22 20:12:00,33.4,25.0,30.02,NE,49,2.0,4.0,71,0.00,,,0.00,0,Wunderground v.1.15,2013-03-23 01:12:00,
2013-03-22 20:13:00,33.4,25.0,30.02,NE,49,2.0,4.0,71,0.00,,,0.00,0,Wunderground v.1.15,2013-03-23 01:13:00,
2013-03-22 20:14:00,33.4,25.0,30.02,NE,49,0.0,4.0,71,0.00,,,0.00,0,Wunderground v.1.15,2013-03-23 01:14:00,
2013-03-22 20:18:00,33.3,25.2,30.02,NE,49,0.0,4.0,72,0.00,,,0.00,0,Wunderground v.1.15,2013-03-23 01:18:00,
2013-03-22 20:19:00,33.4,25.3,30.02,NE,49,0.0,4.0,72,0.00,,,0.00,0,Wunderground v.1.15,2013-03-23 01:19:00,
2013-03-22 20:20:00,33.3,25.2,30.02,NE,49,0.0,1.0,72,0.00,,,0.00,0,Wunderground v.1.15,2013-03-23 01:20:00,
2013-03-22 20:23:00,33.3,25.2,30.02,NE,49,0.0,1.0,72,0.00,,,0.00,0,Wunderground v.1.15,2013-03-23 01:23:00,
2013-03-22 20:24:00,33.3,25.2,30.02,NE,49,0.0,2.0,72,0.00,,,0.00,0,Wunderground v.1.15,2013-03-23 01:24:00,
2013-03-22 20:27:00,33.3,25.2,30.02,NNE,26,0.0,4.0,72,0.00,,,0.00,0,Wunderground v.1.15,2013-03-23 01:27:00,
2013-03-22 20:29:00,33.3,25.2,30.02,NE,40,3.0,4.0,72,0.00,,,0.00,0,Wunderground v.1.15,2013-03-23 01:29:00,
2013-03-22 20:30:00,33.3,25.2,30.02,NE,38,2.0,2.0,72,0.00,,,0.00,0,Wunderground v.1.15,2013-03-23 01:30:00,
2013-03-22 20:34:00,33.3,25.6,30.02,NNE,33,2.0,4.0,73,0.00,,,0.00,0,Wunderground v.1.15,2013-03-23 01:34:00,
2013-03-22 20:36:00,33.3,25.6,30.02,NE,41,3.0,4.0,73,0.00,,,0.00,0,Wunderground v.1.15,2013-03-23 01:36:00,
2013-03-22 20:37:00,33.2,25.5,30.02,NE,42,3.0,4.0,73,0.00,,,0.00,0,Wunderground v.1.15,2013-03-23 01:37:00,
2013-03-22 20:40:00,33.2,25.5,30.02,NNE,31,0.0,2.0,73,0.00,,,0.00,0,Wunderground v.1.15,2013-03-23 01:40:00,
2013-03-22 20:42:00,33.2,25.5,30.03,NNE,32,0.0,2.0,73,0.00,,,0.00,0,Wunderground v.1.15,2013-03-23 01:42:00,
2013-03-22 20:45:00,33.1,25.7,30.03,NNE,32,2.0,3.0,74,0.00,,,0.00,0,Wunderground v.1.15,2013-03-23 01:45:00,
2013-03-22 20:47:00,33.1,25.7,30.03,NE,34,3.0,4.0,74,0.00,,,0.00,0,Wunderground v.1.15,2013-03-23 01:47:00,
2013-03-22 20:48:00,33.1,25.7,30.03,NE,34,2.0,4.0,74,0.00,,,0.00,0,Wunderground v.1.15,2013-03-23 01:48:00,
2013-03-22 20:50:00,33.0,25.6,30.03,NE,34,2.0,2.0,74,0.00,,,0.00,0,Wunderground v.1.15,2013-03-23 01:50:00,
2013-03-22 20:52:00,33.0,25.9,30.03,NE,34,2.0,5.0,75,0.00,,,0.00,0,Wunderground v.1.15,2013-03-23 01:52:00,
2013-03-22 20:53:00,33.0,25.9,30.03,NNE,24,2.0,5.0,75,0.00,,,0.00,0,Wunderground v.1.15,2013-03-23 01:53:00,
2013-03-22 20:55:00,32.9,25.8,30.03,NNE,30,1.0,5.0,75,0.00,,,0.00,0,Wunderground v.1.15,2013-03-23 01:55:00,
2013-03-22 20:56:00,32.9,25.8,30.03,NNE,20,2.0,5.0,75,0.00,,,0.00,0,Wunderground v.1.15,2013-03-23 01:56:00,
2013-03-22 20:59:00,32.9,25.8,30.03,North,360,2.0,5.0,75,0.00,,,0.00,0,Wunderground v.1.15,2013-03-23 01:59:00,
2013-03-22 21:00:00,32.8,25.7,30.03,NNE,30,2.0,3.0,75,0.00,,,0.00,0,Wunderground v.1.15,2013-03-23 02:00:00,
2013-03-22 21:02:00,32.8,25.7,30.03,NNE,27,3.0,3.0,75,0.00,,,0.00,0,Wunderground v.1.15,2013-03-23 02:02:00,
2013-03-22 21:04:00,32.8,26.1,30.03,NNE,27,1.0,4.0,76,0.00,,,0.00,0,Wunderground v.1.15,2013-03-23 02:04:00,
2013-03-22 21:07:00,32.8,26.1,30.04,NNE,24,2.0,4.0,76,0.00,,,0.00,0,Wunderground v.1.15,2013-03-23 02:07:00,
2013-03-22 21:08:00,32.8,26.1,30.04,NNE,19,1.0,4.0,76,0.00,,,0.00,0,Wunderground v.1.15,2013-03-23 02:08:00,
2013-03-22 21:09:00,32.7,26.0,30.04,NNE,19,1.0,4.0,76,0.00,,,0.00,0,Wunderground v.1.15,2013-03-23 02:09:00,
2013-03-22 21:12:00,32.7,26.0,30.04,NNE,16,0.0,3.0,76,0.00,,,0.00,0,Wunderground v.1.15,2013-03-23 02:12:00,
2013-03-22 21:13:00,32.7,26.0,30.04,NNE,14,0.0,3.0,76,0.00,,,0.00,0,Wunderground v.1.15,2013-03-23 02:13:00,
2013-03-22 21:14:00,32.7,26.0,30.04,NNE,14,0.0,3.0,76,0.00,,,0.00,0,Wunderground v.1.15,2013-03-23 02:14:00,
2013-03-22 21:17:00,32.7,26.0,30.04,NNE,22,3.0,4.0,76,0.00,,,0.00,0,Wunderground v.1.15,2013-03-23 02:17:00,
2013-03-22 21:19:00,32.7,26.0,30.04,NNE,20,4.0,4.0,76,0.00,,,0.00,0,Wunderground v.1.15,2013-03-23 02:19:00,
2013-03-22 21:20:00,32.6,25.9,30.04,North,360,2.0,2.0,76,0.00,,,0.00,0,Wunderground v.1.15,2013-03-23 02:20:00,
2013-03-22 21:23:00,32.6,25.9,30.04,NNE,24,2.0,4.0,76,0.00,,,0.00,0,Wunderground v.1.15,2013-03-23 02:23:00,
2013-03-22 21:25:00,32.6,25.9,30.04,NNE,24,1.0,4.0,76,0.00,,,0.00,0,Wunderground v.1.15,2013-03-23 02:25:00,
2013-03-22 21:27:00,32.6,25.9,30.04,NNE,24,1.0,4.0,76,0.00,,,0.00,0,Wunderground v.1.15,2013-03-23 02:27:00,
2013-03-22 21:28:00,32.6,25.9,30.04,NNE,24,1.0,4.0,76,0.00,,,0.00,0,Wunderground v.1.15,2013-03-23 02:28:00,
2013-03-22 21:31:00,32.5,25.8,30.04,NNE,13,2.0,4.0,76,0.00,,,0.00,0,Wunderground v.1.15,2013-03-23 02:31:00,
2013-03-22 21:33:00,32.5,25.8,30.04,NNE,13,0.0,4.0,76,0.00,,,0.00,0,Wunderground v.1.15,2013-03-23 02:33:00,
2013-03-22 21:34:00,32.5,25.8,30.04,NNE,13,2.0,4.0,76,0.00,,,0.00,0,Wunderground v.1.15,2013-03-23 02:34:00,
2013-03-22 21:35:00,32.5,26.1,30.04,North,11,3.0,4.0,77,0.00,,,0.00,0,Wunderground v.1.15,2013-03-23 02:35:00,
2013-03-22 21:39:00,32.4,26.0,30.04,NNE,15,3.0,4.0,77,0.00,,,0.00,0,Wunderground v.1.15,2013-03-23 02:39:00,
2013-03-22 21:41:00,32.4,26.0,30.05,North,5,1.0,2.0,77,0.00,,,0.00,0,Wunderground v.1.15,2013-03-23 02:41:00,
2013-03-22 21:44:00,32.3,25.9,30.05,North,5,3.0,4.0,77,0.00,,,0.00,0,Wunderground v.1.15,2013-03-23 02:44:00,
2013-03-22 21:45:00,32.3,25.9,30.05,North,9,4.0,4.0,77,0.00,,,0.00,0,Wunderground v.1.15,2013-03-23 02:45:00,
2013-03-22 21:47:00,32.3,26.2,30.05,North,9,1.0,4.0,78,0.00,,,0.00,0,Wunderground v.1.15,2013-03-23 02:47:00,
2013-03-22 21:49:00,32.3,26.2,30.05,North,9,2.0,4.0,78,0.00,,,0.00,0,Wunderground v.1.15,2013-03-23 02:49:00,
2013-03-22 21:50:00,32.3,26.2,30.05,NNE,15,4.0,4.0,78,0.00,,,0.00,0,Wunderground v.1.15,2013-03-23 02:50:00,
2013-03-22 21:51:00,32.3,26.2,30.05,North,5,3.0,5.0,78,0.00,,,0.00,0,Wunderground v.1.15,2013-03-23 02:51:00,
2013-03-22 21:52:00,32.3,26.5,30.05,North,9,2.0,5.0,79,0.00,,,0.00,0,Wunderground v.1.15,2013-03-23 02:52:00,
2013-03-22 21:55:00,32.2,26.4,30.05,NNE,12,2.0,5.0,79,0.00,,,0.00,0,Wunderground v.1.15,2013-03-23 02:55:00,
2013-03-22 21:57:00,32.2,26.4,30.05,North,360,5.0,5.0,79,0.00,,,0.00,0,Wunderground v.1.15,2013-03-23 02:57:00,
2013-03-22 21:59:00,32.2,26.4,30.05,NNE,13,2.0,5.0,79,0.00,,,0.00,0,Wunderground v.1.15,2013-03-23 02:59:00,
2013-03-22 22:02:00,32.1,26.6,30.05,NNE,18,3.0,4.0,80,0.00,,,0.00,0,Wunderground v.1.15,2013-03-23 03:02:00,
2013-03-22 22:05:00,32.1,26.6,30.05,NNE,16,0.0,4.0,80,0.00,,,0.00,0,Wunderground v.1.15,2013-03-23 03:05:00,
2013-03-22 22:07:00,32.1,26.6,30.05,NNE,22,3.0,4.0,80,0.00,,,0.00,0,Wunderground v.1.15,2013-03-23 03:07:00,
2013-03-22 22:08:00,32.1,26.6,30.05,NNE,22,2.0,4.0,80,0.00,,,0.00,0,Wunderground v.1.15,2013-03-23 03:08:00,
2013-03-22 22:10:00,32.1,26.6,30.05,North,11,2.0,3.0,80,0.00,,,0.00,0,Wunderground v.1.15,2013-03-23 03:10:00,
2013-03-22 22:11:00,32.0,26.5,30.05,North,11,3.0,3.0,80,0.00,,,0.00,0,Wunderground v.1.15,2013-03-23 03:11:00,
2013-03-22 22:13:00,32.1,26.6,30.05,North,10,1.0,4.0,80,0.00,,,0.00,0,Wunderground v.1.15,2013-03-23 03:13:00,
2013-03-22 22:15:00,32.0,26.5,30.05,NNE,13,1.0,4.0,80,0.00,,,0.00,0,Wunderground v.1.15,2013-03-23 03:15:00,
2013-03-22 22:16:00,32.1,26.6,30.05,NNE,13,1.0,4.0,80,0.00,,,0.00,0,Wunderground v.1.15,2013-03-23 03:16:00,
2013-03-22 22:20:00,32.0,26.8,30.05,NNE,23,2.0,4.0,81,0.00,,,0.00,0,Wunderground v.1.15,2013-03-23 03:20:00,
2013-03-22 22:25:00,32.0,26.5,30.05,NNE,22,2.0,4.0,80,0.00,,,0.00,0,Wunderground v.1.15,2013-03-23 03:25:00,
2013-03-22 22:26:00,32.0,26.8,30.05,NNE,22,1.0,4.0,81,0.00,,,0.00,0,Wunderground v.1.15,2013-03-23 03:26:00,
2013-03-22 22:27:00,32.0,26.8,30.06,NNE,22,2.0,4.0,81,0.00,,,0.00,0,Wunderground v.1.15,2013-03-23 03:27:00,
2013-03-22 22:30:00,32.0,26.8,30.06,NNE,13,0.0,1.0,81,0.00,,,0.00,0,Wunderground v.1.15,2013-03-23 03:30:00,
2013-03-22 22:31:00,32.0,26.8,30.06,NNE,13,0.0,1.0,81,0.00,,,0.00,0,Wunderground v.1.15,2013-03-23 03:31:00,
2013-03-22 22:32:00,32.0,26.8,30.06,NNE,13,2.0,2.0,81,0.00,,,0.00,0,Wunderground v.1.15,2013-03-23 03:32:00,
2013-03-22 22:34:00,32.0,26.8,30.06,NNE,14,2.0,2.0,81,0.00,,,0.00,0,Wunderground v.1.15,2013-03-23 03:34:00,
2013-03-22 22:35:00,32.0,26.8,30.06,NNE,14,0.0,2.0,81,0.00,,,0.00,0,Wunderground v.1.15,2013-03-23 03:35:00,
2013-03-22 22:37:00,32.0,26.8,30.06,NNE,15,2.0,4.0,81,0.00,,,0.00,0,Wunderground v.1.15,2013-03-23 03:37:00,
2013-03-22 22:38:00,32.0,26.8,30.06,NNE,15,0.0,4.0,81,0.00,,,0.00,0,Wunderground v.1.15,2013-03-23 03:38:00,
2013-03-22 22:39:00,32.0,26.8,30.06,NNE,15,0.0,4.0,81,0.00,,,0.00,0,Wunderground v.1.15,2013-03-23 03:39:00,
2013-03-22 22:42:00,32.0,26.8,30.06,NNE,17,3.0,4.0,81,0.00,,,0.00,0,Wunderground v.1.15,2013-03-23 03:42:00,
2013-03-22 22:43:00,32.0,26.8,30.06,NNE,17,2.0,4.0,81,0.00,,,0.00,0,Wunderground v.1.15,2013-03-23 03:43:00,
2013-03-22 22:44:00,32.0,26.8,30.06,NNE,17,1.0,4.0,81,0.00,,,0.00,0,Wunderground v.1.15,2013-03-23 03:44:00,
2013-03-22 22:45:00,32.0,26.8,30.06,North,11,3.0,5.0,81,0.00,,,0.00,0,Wunderground v.1.15,2013-03-23 03:45:00,
2013-03-22 22:49:00,32.0,26.8,30.06,NNE,15,2.0,5.0,81,0.00,,,0.00,0,Wunderground v.1.15,2013-03-23 03:49:00,
2013-03-22 22:50:00,32.0,26.8,30.06,NNE,17,2.0,2.0,81,0.00,,,0.00,0,Wunderground v.1.15,2013-03-23 03:50:00,
2013-03-22 22:52:00,32.0,26.8,30.06,NNE,17,3.0,3.0,81,0.00,,,0.00,0,Wunderground v.1.15,2013-03-23 03:52:00,
2013-03-22 22:55:00,32.0,27.1,30.06,NNE,17,2.0,3.0,82,0.00,,,0.00,0,Wunderground v.1.15,2013-03-23 03:55:00,
2013-03-22 22:57:00,32.0,27.1,30.06,NNE,19,1.0,3.0,82,0.00,,,0.00,0,Wunderground v.1.15,2013-03-23 03:57:00,
2013-03-22 23:00:00,31.9,27.0,30.07,NNE,22,4.0,4.0,82,0.00,,,0.00,0,Wunderground v.1.15,2013-03-23 04:00:00,
2013-03-22 23:05:00,31.9,27.0,30.06,NNE,28,4.0,5.0,82,0.00,,,0.00,0,Wunderground v.1.15,2013-03-23 04:05:00,
2013-03-22 23:06:00,31.9,27.0,30.06,NNE,29,4.0,5.0,82,0.00,,,0.00,0,Wunderground v.1.15,2013-03-23 04:06:00,
2013-03-22 23:08:00,31.9,26.7,30.06,NE,39,3.0,5.0,81,0.00,,,0.00,0,Wunderground v.1.15,2013-03-23 04:08:00,
2013-03-22 23:11:00,31.9,26.7,30.06,NE,41,3.0,3.0,81,0.00,,,0.00,0,Wunderground v.1.15,2013-03-23 04:11:00,
2013-03-22 23:12:00,31.9,26.7,30.06,NE,41,0.0,3.0,81,0.00,,,0.00,0,Wunderground v.1.15,2013-03-23 04:12:00,
2013-03-22 23:13:00,31.9,26.7,30.06,NE,41,5.0,5.0,81,0.00,,,0.00,0,Wunderground v.1.15,2013-03-23 04:13:00,
2013-03-22 23:15:00,31.9,26.7,30.06,NE,42,3.0,5.0,81,0.00,,,0.00,0,Wunderground v.1.15,2013-03-23 04:15:00,
2013-03-22 23:17:00,31.9,26.7,30.06,NE,42,3.0,5.0,81,0.00,,,0.00,0,Wunderground v.1.15,2013-03-23 04:17:00,
2013-03-22 23:19:00,31.9,26.7,30.06,NE,34,4.0,6.0,81,0.00,,,0.00,0,Wunderground v.1.15,2013-03-23 04:19:00,
2013-03-22 23:20:00,31.9,26.7,30.06,NE,40,5.0,6.0,81,0.00,,,0.00,0,Wunderground v.1.15,2013-03-23 04:20:00,
2013-03-22 23:21:00,31.9,26.7,30.06,NE,45,3.0,6.0,81,0.00,,,0.00,0,Wunderground v.1.15,2013-03-23 04:21:00,
2013-03-22 23:23:00,31.9,26.7,30.06,NE,44,2.0,6.0,81,0.00,,,0.00,0,Wunderground v.1.15,2013-03-23 04:23:00,
2013-03-22 23:24:00,31.9,26.4,30.06,NE,44,3.0,6.0,80,0.00,,,0.00,0,Wunderground v.1.15,2013-03-23 04:24:00,
2013-03-22 23:25:00,31.9,26.4,30.06,NE,44,3.0,6.0,80,0.00,,,0.00,0,Wunderground v.1.15,2013-03-23 04:25:00,
2013-03-22 23:26:00,31.9,26.4,30.06,NE,39,3.0,6.0,80,0.00,,,0.00,0,Wunderground v.1.15,2013-03-23 04:26:00,
2013-03-22 23:29:00,31.9,26.4,30.06,NE,45,2.0,6.0,80,0.00,,,0.00,0,Wunderground v.1.15,2013-03-23 04:29:00,
2013-03-22 23:31:00,31.9,26.7,30.06,NE,36,4.0,4.0,81,0.00,,,0.00,0,Wunderground v.1.15,2013-03-23 04:31:00,
2013-03-22 23:34:00,31.9,26.4,30.06,NE,34,3.0,6.0,80,0.00,,,0.00,0,Wunderground v.1.15,2013-03-23 04:34:00,
2013-03-22 23:37:00,31.9,26.4,30.06,NE,35,5.0,6.0,80,0.00,,,0.00,0,Wunderground v.1.15,2013-03-23 04:37:00,
2013-03-22 23:39:00,31.8,26.3,30.06,NE,46,3.0,6.0,80,0.00,,,0.00,0,Wunderground v.1.15,2013-03-23 04:39:00,
2013-03-22 23:40:00,31.8,26.3,30.06,NE,46,2.0,6.0,80,0.00,,,0.00,0,Wunderground v.1.15,2013-03-23 04:40:00,
2013-03-22 23:42:00,31.8,26.0,30.06,NE,55,5.0,5.0,79,0.00,,,0.00,0,Wunderground v.1.15,2013-03-23 04:42:00,
2013-03-22 23:45:00,31.8,26.0,30.06,NE,53,3.0,5.0,79,0.00,,,0.00,0,Wunderground v.1.15,2013-03-23 04:45:00,
2013-03-22 23:46:00,31.8,26.0,30.06,NE,53,3.0,5.0,79,0.00,,,0.00,0,Wunderground v.1.15,2013-03-23 04:46:00,
2013-03-22 23:47:00,31.7,25.9,30.06,NE,51,5.0,5.0,79,0.00,,,0.00,0,Wunderground v.1.15,2013-03-23 04:47:00,
2013-03-22 23:51:00,31.7,25.6,30.06,NE,46,3.0,4.0,78,0.00,,,0.00,0,Wunderground v.1.15,2013-03-23 04:51:00,
2013-03-22 23:52:00,31.7,25.6,30.06,ENE,63,7.0,7.0,78,0.00,,,0.00,0,Wunderground v.1.15,2013-03-23 04:52:00,
2013-03-22 23:54:00,31.7,25.6,30.06,ENE,69,3.0,7.0,78,0.00,,,0.00,0,Wunderground v.1.15,2013-03-23 04:54:00,
2013-03-22 23:56:00,31.7,25.6,30.06,NNE,29,2.0,7.0,78,0.00,,,0.00,0,Wunderground v.1.15,2013-03-23 04:56:00,